<?xml version="1.0" encoding="UTF-8" standalone="no" ?>
<gpx xmlns="http://www.topografix.com/GPX/1/1" xmlns:xsi="http://www.w3.org/2001/XMLSchema-instance" xsi:schemaLocation="http://www.topografix.com/GPX/1/1 http://www.topografix.com/GPX/1/1/gpx.xsd" version="1.1" creator="VisuGPX - https://www.visugpx.com">
  <metadata>
    <name>Tracé actuel: 03 AOU 2020 12:54</name>
    <desc><![CDATA[prochainement a faire dans l'autre sens]]></desc>
  </metadata>
  <trk>
    <name><![CDATA[Tracé actuel: 03 AOU 2020 12:54]]></name>
    <trkseg>
      <trkpt lat="49.63446" lon="4.98028">
        <ele>216.43</ele>
        <time>2020-08-03T10:54:34Z</time>
      </trkpt>
      <trkpt lat="49.63449" lon="4.98024">
        <ele>218.84</ele>
        <time>2020-08-03T10:54:52Z</time>
      </trkpt>
      <trkpt lat="49.63444" lon="4.98025">
        <ele>218.84</ele>
        <time>2020-08-03T10:55:12Z</time>
      </trkpt>
      <trkpt lat="49.63457" lon="4.98011">
        <ele>214.03</ele>
        <time>2020-08-03T10:55:35Z</time>
      </trkpt>
      <trkpt lat="49.63452" lon="4.98014">
        <ele>210.19</ele>
        <time>2020-08-03T10:55:52Z</time>
      </trkpt>
      <trkpt lat="49.63448" lon="4.98018">
        <ele>208.74</ele>
        <time>2020-08-03T10:56:13Z</time>
      </trkpt>
      <trkpt lat="49.63448" lon="4.98037">
        <ele>202.01</ele>
        <time>2020-08-03T10:56:20Z</time>
      </trkpt>
      <trkpt lat="49.63451" lon="4.98043">
        <ele>200.09</ele>
        <time>2020-08-03T10:56:26Z</time>
      </trkpt>
      <trkpt lat="49.63459" lon="4.98061">
        <ele>199.13</ele>
        <time>2020-08-03T10:56:41Z</time>
      </trkpt>
      <trkpt lat="49.63471" lon="4.98089">
        <ele>187.59</ele>
        <time>2020-08-03T10:56:53Z</time>
      </trkpt>
      <trkpt lat="49.63479" lon="4.98101">
        <ele>185.67</ele>
        <time>2020-08-03T10:57:05Z</time>
      </trkpt>
      <trkpt lat="49.63484" lon="4.98109">
        <ele>184.23</ele>
        <time>2020-08-03T10:57:12Z</time>
      </trkpt>
      <trkpt lat="49.63492" lon="4.98126">
        <ele>184.71</ele>
        <time>2020-08-03T10:57:26Z</time>
      </trkpt>
      <trkpt lat="49.63492" lon="4.98127">
        <ele>184.23</ele>
        <time>2020-08-03T10:57:27Z</time>
      </trkpt>
      <trkpt lat="49.6349" lon="4.98142">
        <ele>182.79</ele>
        <time>2020-08-03T10:57:40Z</time>
      </trkpt>
      <trkpt lat="49.63489" lon="4.98143">
        <ele>182.79</ele>
        <time>2020-08-03T10:57:41Z</time>
      </trkpt>
      <trkpt lat="49.63482" lon="4.98159">
        <ele>183.27</ele>
        <time>2020-08-03T10:57:53Z</time>
      </trkpt>
      <trkpt lat="49.63476" lon="4.98173">
        <ele>186.63</ele>
        <time>2020-08-03T10:58:05Z</time>
      </trkpt>
      <trkpt lat="49.63473" lon="4.9819">
        <ele>188.08</ele>
        <time>2020-08-03T10:58:17Z</time>
      </trkpt>
      <trkpt lat="49.63467" lon="4.98205">
        <ele>190</ele>
        <time>2020-08-03T10:58:30Z</time>
      </trkpt>
      <trkpt lat="49.63458" lon="4.98223">
        <ele>190</ele>
        <time>2020-08-03T10:58:44Z</time>
      </trkpt>
      <trkpt lat="49.63456" lon="4.98227">
        <ele>190.96</ele>
        <time>2020-08-03T10:58:48Z</time>
      </trkpt>
      <trkpt lat="49.63449" lon="4.98238">
        <ele>193.84</ele>
        <time>2020-08-03T10:58:59Z</time>
      </trkpt>
      <trkpt lat="49.63446" lon="4.98248">
        <ele>196.25</ele>
        <time>2020-08-03T10:59:10Z</time>
      </trkpt>
      <trkpt lat="49.63437" lon="4.98257">
        <ele>197.69</ele>
        <time>2020-08-03T10:59:22Z</time>
      </trkpt>
      <trkpt lat="49.63434" lon="4.9826">
        <ele>196.73</ele>
        <time>2020-08-03T10:59:35Z</time>
      </trkpt>
      <trkpt lat="49.63424" lon="4.98273">
        <ele>197.21</ele>
        <time>2020-08-03T10:59:48Z</time>
      </trkpt>
      <trkpt lat="49.63417" lon="4.98284">
        <ele>198.65</ele>
        <time>2020-08-03T10:59:59Z</time>
      </trkpt>
      <trkpt lat="49.63404" lon="4.98296">
        <ele>200.57</ele>
        <time>2020-08-03T11:00:14Z</time>
      </trkpt>
      <trkpt lat="49.63395" lon="4.9831">
        <ele>202.01</ele>
        <time>2020-08-03T11:00:30Z</time>
      </trkpt>
      <trkpt lat="49.63382" lon="4.98318">
        <ele>203.94</ele>
        <time>2020-08-03T11:00:43Z</time>
      </trkpt>
      <trkpt lat="49.63372" lon="4.98327">
        <ele>206.34</ele>
        <time>2020-08-03T11:00:54Z</time>
      </trkpt>
      <trkpt lat="49.63362" lon="4.98333">
        <ele>208.74</ele>
        <time>2020-08-03T11:01:05Z</time>
      </trkpt>
      <trkpt lat="49.63354" lon="4.98338">
        <ele>210.19</ele>
        <time>2020-08-03T11:01:15Z</time>
      </trkpt>
      <trkpt lat="49.63343" lon="4.98345">
        <ele>212.59</ele>
        <time>2020-08-03T11:01:27Z</time>
      </trkpt>
      <trkpt lat="49.63332" lon="4.98347">
        <ele>214.51</ele>
        <time>2020-08-03T11:01:40Z</time>
      </trkpt>
      <trkpt lat="49.63327" lon="4.98346">
        <ele>214.99</ele>
        <time>2020-08-03T11:01:47Z</time>
      </trkpt>
      <trkpt lat="49.63315" lon="4.98345">
        <ele>216.91</ele>
        <time>2020-08-03T11:01:59Z</time>
      </trkpt>
      <trkpt lat="49.63298" lon="4.98341">
        <ele>219.8</ele>
        <time>2020-08-03T11:02:15Z</time>
      </trkpt>
      <trkpt lat="49.63283" lon="4.98338">
        <ele>222.2</ele>
        <time>2020-08-03T11:02:27Z</time>
      </trkpt>
      <trkpt lat="49.63273" lon="4.98335">
        <ele>224.61</ele>
        <time>2020-08-03T11:02:42Z</time>
      </trkpt>
      <trkpt lat="49.63262" lon="4.98333">
        <ele>226.05</ele>
        <time>2020-08-03T11:02:53Z</time>
      </trkpt>
      <trkpt lat="49.63247" lon="4.98334">
        <ele>224.12</ele>
        <time>2020-08-03T11:03:07Z</time>
      </trkpt>
      <trkpt lat="49.63234" lon="4.98334">
        <ele>224.12</ele>
        <time>2020-08-03T11:03:20Z</time>
      </trkpt>
      <trkpt lat="49.63223" lon="4.9833">
        <ele>226.05</ele>
        <time>2020-08-03T11:03:32Z</time>
      </trkpt>
      <trkpt lat="49.6321" lon="4.9833">
        <ele>225.57</ele>
        <time>2020-08-03T11:03:43Z</time>
      </trkpt>
      <trkpt lat="49.63197" lon="4.98331">
        <ele>225.57</ele>
        <time>2020-08-03T11:03:55Z</time>
      </trkpt>
      <trkpt lat="49.63185" lon="4.98329">
        <ele>226.05</ele>
        <time>2020-08-03T11:04:07Z</time>
      </trkpt>
      <trkpt lat="49.63174" lon="4.98329">
        <ele>224.12</ele>
        <time>2020-08-03T11:04:18Z</time>
      </trkpt>
      <trkpt lat="49.63168" lon="4.98328">
        <ele>225.57</ele>
        <time>2020-08-03T11:04:24Z</time>
      </trkpt>
      <trkpt lat="49.63157" lon="4.98327">
        <ele>226.05</ele>
        <time>2020-08-03T11:04:36Z</time>
      </trkpt>
      <trkpt lat="49.63144" lon="4.98327">
        <ele>226.53</ele>
        <time>2020-08-03T11:04:47Z</time>
      </trkpt>
      <trkpt lat="49.63132" lon="4.98326">
        <ele>227.49</ele>
        <time>2020-08-03T11:04:59Z</time>
      </trkpt>
      <trkpt lat="49.6312" lon="4.98325">
        <ele>228.45</ele>
        <time>2020-08-03T11:05:10Z</time>
      </trkpt>
      <trkpt lat="49.63109" lon="4.98324">
        <ele>228.93</ele>
        <time>2020-08-03T11:05:22Z</time>
      </trkpt>
      <trkpt lat="49.63095" lon="4.98323">
        <ele>227.49</ele>
        <time>2020-08-03T11:05:35Z</time>
      </trkpt>
      <trkpt lat="49.6308" lon="4.9832">
        <ele>229.41</ele>
        <time>2020-08-03T11:05:49Z</time>
      </trkpt>
      <trkpt lat="49.63065" lon="4.9832">
        <ele>230.37</ele>
        <time>2020-08-03T11:06:02Z</time>
      </trkpt>
      <trkpt lat="49.63053" lon="4.98319">
        <ele>229.41</ele>
        <time>2020-08-03T11:06:15Z</time>
      </trkpt>
      <trkpt lat="49.63041" lon="4.98319">
        <ele>228.93</ele>
        <time>2020-08-03T11:06:30Z</time>
      </trkpt>
      <trkpt lat="49.6303" lon="4.98318">
        <ele>228.93</ele>
        <time>2020-08-03T11:06:41Z</time>
      </trkpt>
      <trkpt lat="49.63025" lon="4.98317">
        <ele>230.37</ele>
        <time>2020-08-03T11:06:46Z</time>
      </trkpt>
      <trkpt lat="49.63011" lon="4.98316">
        <ele>234.22</ele>
        <time>2020-08-03T11:07:01Z</time>
      </trkpt>
      <trkpt lat="49.63009" lon="4.98315">
        <ele>235.18</ele>
        <time>2020-08-03T11:07:04Z</time>
      </trkpt>
      <trkpt lat="49.62996" lon="4.98312">
        <ele>236.62</ele>
        <time>2020-08-03T11:07:18Z</time>
      </trkpt>
      <trkpt lat="49.62981" lon="4.98316">
        <ele>236.14</ele>
        <time>2020-08-03T11:07:33Z</time>
      </trkpt>
      <trkpt lat="49.62967" lon="4.98315">
        <ele>237.1</ele>
        <time>2020-08-03T11:07:46Z</time>
      </trkpt>
      <trkpt lat="49.6296" lon="4.98314">
        <ele>237.1</ele>
        <time>2020-08-03T11:07:53Z</time>
      </trkpt>
      <trkpt lat="49.62946" lon="4.98313">
        <ele>237.58</ele>
        <time>2020-08-03T11:08:06Z</time>
      </trkpt>
      <trkpt lat="49.62932" lon="4.98314">
        <ele>239.99</ele>
        <time>2020-08-03T11:08:19Z</time>
      </trkpt>
      <trkpt lat="49.6292" lon="4.98317">
        <ele>241.43</ele>
        <time>2020-08-03T11:08:32Z</time>
      </trkpt>
      <trkpt lat="49.62908" lon="4.98321">
        <ele>243.35</ele>
        <time>2020-08-03T11:08:43Z</time>
      </trkpt>
      <trkpt lat="49.62899" lon="4.98326">
        <ele>242.87</ele>
        <time>2020-08-03T11:08:53Z</time>
      </trkpt>
      <trkpt lat="49.62887" lon="4.9833">
        <ele>242.87</ele>
        <time>2020-08-03T11:09:05Z</time>
      </trkpt>
      <trkpt lat="49.62875" lon="4.98336">
        <ele>242.39</ele>
        <time>2020-08-03T11:09:17Z</time>
      </trkpt>
      <trkpt lat="49.62872" lon="4.98336">
        <ele>242.39</ele>
        <time>2020-08-03T11:09:20Z</time>
      </trkpt>
      <trkpt lat="49.62866" lon="4.98338">
        <ele>242.87</ele>
        <time>2020-08-03T11:09:26Z</time>
      </trkpt>
      <trkpt lat="49.62849" lon="4.98341">
        <ele>241.43</ele>
        <time>2020-08-03T11:09:43Z</time>
      </trkpt>
      <trkpt lat="49.62836" lon="4.98347">
        <ele>241.91</ele>
        <time>2020-08-03T11:09:57Z</time>
      </trkpt>
      <trkpt lat="49.62829" lon="4.98354">
        <ele>240.95</ele>
        <time>2020-08-03T11:10:07Z</time>
      </trkpt>
      <trkpt lat="49.6282" lon="4.98365">
        <ele>241.91</ele>
        <time>2020-08-03T11:10:20Z</time>
      </trkpt>
      <trkpt lat="49.62809" lon="4.98375">
        <ele>243.83</ele>
        <time>2020-08-03T11:10:33Z</time>
      </trkpt>
      <trkpt lat="49.62796" lon="4.98386">
        <ele>244.79</ele>
        <time>2020-08-03T11:10:47Z</time>
      </trkpt>
      <trkpt lat="49.62785" lon="4.98394">
        <ele>247.2</ele>
        <time>2020-08-03T11:11:00Z</time>
      </trkpt>
      <trkpt lat="49.62769" lon="4.98406">
        <ele>247.68</ele>
        <time>2020-08-03T11:11:16Z</time>
      </trkpt>
      <trkpt lat="49.62757" lon="4.98417">
        <ele>249.6</ele>
        <time>2020-08-03T11:11:30Z</time>
      </trkpt>
      <trkpt lat="49.62748" lon="4.98425">
        <ele>249.12</ele>
        <time>2020-08-03T11:11:42Z</time>
      </trkpt>
      <trkpt lat="49.62735" lon="4.98433">
        <ele>252</ele>
        <time>2020-08-03T11:11:55Z</time>
      </trkpt>
      <trkpt lat="49.62726" lon="4.9844">
        <ele>252.96</ele>
        <time>2020-08-03T11:12:08Z</time>
      </trkpt>
      <trkpt lat="49.62714" lon="4.98451">
        <ele>254.89</ele>
        <time>2020-08-03T11:12:22Z</time>
      </trkpt>
      <trkpt lat="49.627" lon="4.98464">
        <ele>256.33</ele>
        <time>2020-08-03T11:12:38Z</time>
      </trkpt>
      <trkpt lat="49.62688" lon="4.98472">
        <ele>257.77</ele>
        <time>2020-08-03T11:12:52Z</time>
      </trkpt>
      <trkpt lat="49.62675" lon="4.98482">
        <ele>257.29</ele>
        <time>2020-08-03T11:13:09Z</time>
      </trkpt>
      <trkpt lat="49.62663" lon="4.98494">
        <ele>258.25</ele>
        <time>2020-08-03T11:13:24Z</time>
      </trkpt>
      <trkpt lat="49.62648" lon="4.98507">
        <ele>256.81</ele>
        <time>2020-08-03T11:13:38Z</time>
      </trkpt>
      <trkpt lat="49.62637" lon="4.98518">
        <ele>256.81</ele>
        <time>2020-08-03T11:13:52Z</time>
      </trkpt>
      <trkpt lat="49.6262" lon="4.9853">
        <ele>255.85</ele>
        <time>2020-08-03T11:14:09Z</time>
      </trkpt>
      <trkpt lat="49.62606" lon="4.98543">
        <ele>254.89</ele>
        <time>2020-08-03T11:14:25Z</time>
      </trkpt>
      <trkpt lat="49.62595" lon="4.98552">
        <ele>255.37</ele>
        <time>2020-08-03T11:14:38Z</time>
      </trkpt>
      <trkpt lat="49.6258" lon="4.98564">
        <ele>256.33</ele>
        <time>2020-08-03T11:14:52Z</time>
      </trkpt>
      <trkpt lat="49.62571" lon="4.98573">
        <ele>255.85</ele>
        <time>2020-08-03T11:15:04Z</time>
      </trkpt>
      <trkpt lat="49.62558" lon="4.98583">
        <ele>259.69</ele>
        <time>2020-08-03T11:15:17Z</time>
      </trkpt>
      <trkpt lat="49.62556" lon="4.98582">
        <ele>259.69</ele>
        <time>2020-08-03T11:15:21Z</time>
      </trkpt>
      <trkpt lat="49.62554" lon="4.9858">
        <ele>259.69</ele>
        <time>2020-08-03T11:15:23Z</time>
      </trkpt>
      <trkpt lat="49.62553" lon="4.98563">
        <ele>259.69</ele>
        <time>2020-08-03T11:15:36Z</time>
      </trkpt>
      <trkpt lat="49.62553" lon="4.98561">
        <ele>259.21</ele>
        <time>2020-08-03T11:15:37Z</time>
      </trkpt>
      <trkpt lat="49.62548" lon="4.98555">
        <ele>258.73</ele>
        <time>2020-08-03T11:15:45Z</time>
      </trkpt>
      <trkpt lat="49.62545" lon="4.98555">
        <ele>259.21</ele>
        <time>2020-08-03T11:16:03Z</time>
      </trkpt>
      <trkpt lat="49.62535" lon="4.98557">
        <ele>259.69</ele>
        <time>2020-08-03T11:16:16Z</time>
      </trkpt>
      <trkpt lat="49.6252" lon="4.98559">
        <ele>260.65</ele>
        <time>2020-08-03T11:16:29Z</time>
      </trkpt>
      <trkpt lat="49.62507" lon="4.98556">
        <ele>260.17</ele>
        <time>2020-08-03T11:16:41Z</time>
      </trkpt>
      <trkpt lat="49.62495" lon="4.98547">
        <ele>259.21</ele>
        <time>2020-08-03T11:16:54Z</time>
      </trkpt>
      <trkpt lat="49.62484" lon="4.9854">
        <ele>259.69</ele>
        <time>2020-08-03T11:17:06Z</time>
      </trkpt>
      <trkpt lat="49.62471" lon="4.98529">
        <ele>259.69</ele>
        <time>2020-08-03T11:17:20Z</time>
      </trkpt>
      <trkpt lat="49.62455" lon="4.98517">
        <ele>259.21</ele>
        <time>2020-08-03T11:17:34Z</time>
      </trkpt>
      <trkpt lat="49.62451" lon="4.98515">
        <ele>258.25</ele>
        <time>2020-08-03T11:17:40Z</time>
      </trkpt>
      <trkpt lat="49.62438" lon="4.98503">
        <ele>256.81</ele>
        <time>2020-08-03T11:17:54Z</time>
      </trkpt>
      <trkpt lat="49.62427" lon="4.98494">
        <ele>255.37</ele>
        <time>2020-08-03T11:18:06Z</time>
      </trkpt>
      <trkpt lat="49.62415" lon="4.98485">
        <ele>257.29</ele>
        <time>2020-08-03T11:18:19Z</time>
      </trkpt>
      <trkpt lat="49.62401" lon="4.98478">
        <ele>257.77</ele>
        <time>2020-08-03T11:18:32Z</time>
      </trkpt>
      <trkpt lat="49.62388" lon="4.98469">
        <ele>258.25</ele>
        <time>2020-08-03T11:18:44Z</time>
      </trkpt>
      <trkpt lat="49.62377" lon="4.98462">
        <ele>258.25</ele>
        <time>2020-08-03T11:18:55Z</time>
      </trkpt>
      <trkpt lat="49.62367" lon="4.98457">
        <ele>258.73</ele>
        <time>2020-08-03T11:19:06Z</time>
      </trkpt>
      <trkpt lat="49.62354" lon="4.98449">
        <ele>259.69</ele>
        <time>2020-08-03T11:19:19Z</time>
      </trkpt>
      <trkpt lat="49.62342" lon="4.98441">
        <ele>261.14</ele>
        <time>2020-08-03T11:19:31Z</time>
      </trkpt>
      <trkpt lat="49.62331" lon="4.98431">
        <ele>262.1</ele>
        <time>2020-08-03T11:19:44Z</time>
      </trkpt>
      <trkpt lat="49.62319" lon="4.98416">
        <ele>263.06</ele>
        <time>2020-08-03T11:19:59Z</time>
      </trkpt>
      <trkpt lat="49.62307" lon="4.98399">
        <ele>266.42</ele>
        <time>2020-08-03T11:20:14Z</time>
      </trkpt>
      <trkpt lat="49.62297" lon="4.98385">
        <ele>268.83</ele>
        <time>2020-08-03T11:20:28Z</time>
      </trkpt>
      <trkpt lat="49.62288" lon="4.98366">
        <ele>271.71</ele>
        <time>2020-08-03T11:20:43Z</time>
      </trkpt>
      <trkpt lat="49.62281" lon="4.98348">
        <ele>274.11</ele>
        <time>2020-08-03T11:20:57Z</time>
      </trkpt>
      <trkpt lat="49.62273" lon="4.98334">
        <ele>275.56</ele>
        <time>2020-08-03T11:21:12Z</time>
      </trkpt>
      <trkpt lat="49.6226" lon="4.98321">
        <ele>277.96</ele>
        <time>2020-08-03T11:21:26Z</time>
      </trkpt>
      <trkpt lat="49.62242" lon="4.9831">
        <ele>276.04</ele>
        <time>2020-08-03T11:21:43Z</time>
      </trkpt>
      <trkpt lat="49.62227" lon="4.983">
        <ele>274.59</ele>
        <time>2020-08-03T11:21:59Z</time>
      </trkpt>
      <trkpt lat="49.62225" lon="4.98299">
        <ele>275.07</ele>
        <time>2020-08-03T11:22:01Z</time>
      </trkpt>
      <trkpt lat="49.62207" lon="4.98292">
        <ele>274.59</ele>
        <time>2020-08-03T11:22:13Z</time>
      </trkpt>
      <trkpt lat="49.62197" lon="4.98289">
        <ele>272.67</ele>
        <time>2020-08-03T11:22:21Z</time>
      </trkpt>
      <trkpt lat="49.62181" lon="4.98284">
        <ele>269.79</ele>
        <time>2020-08-03T11:22:35Z</time>
      </trkpt>
      <trkpt lat="49.62178" lon="4.98283">
        <ele>268.35</ele>
        <time>2020-08-03T11:22:39Z</time>
      </trkpt>
      <trkpt lat="49.62162" lon="4.98279">
        <ele>264.98</ele>
        <time>2020-08-03T11:22:54Z</time>
      </trkpt>
      <trkpt lat="49.62148" lon="4.98274">
        <ele>264.02</ele>
        <time>2020-08-03T11:23:06Z</time>
      </trkpt>
      <trkpt lat="49.62136" lon="4.98268">
        <ele>264.98</ele>
        <time>2020-08-03T11:23:19Z</time>
      </trkpt>
      <trkpt lat="49.62121" lon="4.98256">
        <ele>269.79</ele>
        <time>2020-08-03T11:23:35Z</time>
      </trkpt>
      <trkpt lat="49.62109" lon="4.98246">
        <ele>271.71</ele>
        <time>2020-08-03T11:23:48Z</time>
      </trkpt>
      <trkpt lat="49.62102" lon="4.98238">
        <ele>270.27</ele>
        <time>2020-08-03T11:23:56Z</time>
      </trkpt>
      <trkpt lat="49.62093" lon="4.98228">
        <ele>271.23</ele>
        <time>2020-08-03T11:24:07Z</time>
      </trkpt>
      <trkpt lat="49.6209" lon="4.98226">
        <ele>271.71</ele>
        <time>2020-08-03T11:24:10Z</time>
      </trkpt>
      <trkpt lat="49.62077" lon="4.98221">
        <ele>272.67</ele>
        <time>2020-08-03T11:24:25Z</time>
      </trkpt>
      <trkpt lat="49.62076" lon="4.98221">
        <ele>272.67</ele>
        <time>2020-08-03T11:24:26Z</time>
      </trkpt>
      <trkpt lat="49.6206" lon="4.98215">
        <ele>274.11</ele>
        <time>2020-08-03T11:24:40Z</time>
      </trkpt>
      <trkpt lat="49.62042" lon="4.98209">
        <ele>274.11</ele>
        <time>2020-08-03T11:24:54Z</time>
      </trkpt>
      <trkpt lat="49.6203" lon="4.98205">
        <ele>274.59</ele>
        <time>2020-08-03T11:25:06Z</time>
      </trkpt>
      <trkpt lat="49.62017" lon="4.98197">
        <ele>276.52</ele>
        <time>2020-08-03T11:25:18Z</time>
      </trkpt>
      <trkpt lat="49.62005" lon="4.9819">
        <ele>278.92</ele>
        <time>2020-08-03T11:25:31Z</time>
      </trkpt>
      <trkpt lat="49.61989" lon="4.98184">
        <ele>278.44</ele>
        <time>2020-08-03T11:25:46Z</time>
      </trkpt>
      <trkpt lat="49.61976" lon="4.98179">
        <ele>279.88</ele>
        <time>2020-08-03T11:25:58Z</time>
      </trkpt>
      <trkpt lat="49.61963" lon="4.98174">
        <ele>282.28</ele>
        <time>2020-08-03T11:26:12Z</time>
      </trkpt>
      <trkpt lat="49.61953" lon="4.98166">
        <ele>284.69</ele>
        <time>2020-08-03T11:26:28Z</time>
      </trkpt>
      <trkpt lat="49.61941" lon="4.9816">
        <ele>288.53</ele>
        <time>2020-08-03T11:26:44Z</time>
      </trkpt>
      <trkpt lat="49.61928" lon="4.98153">
        <ele>290.46</ele>
        <time>2020-08-03T11:26:58Z</time>
      </trkpt>
      <trkpt lat="49.61909" lon="4.98149">
        <ele>288.53</ele>
        <time>2020-08-03T11:27:14Z</time>
      </trkpt>
      <trkpt lat="49.61891" lon="4.98147">
        <ele>289.01</ele>
        <time>2020-08-03T11:27:32Z</time>
      </trkpt>
      <trkpt lat="49.61872" lon="4.98155">
        <ele>289.49</ele>
        <time>2020-08-03T11:27:49Z</time>
      </trkpt>
      <trkpt lat="49.61852" lon="4.98164">
        <ele>291.9</ele>
        <time>2020-08-03T11:28:05Z</time>
      </trkpt>
      <trkpt lat="49.61834" lon="4.98173">
        <ele>295.26</ele>
        <time>2020-08-03T11:28:20Z</time>
      </trkpt>
      <trkpt lat="49.61822" lon="4.98176">
        <ele>298.15</ele>
        <time>2020-08-03T11:28:34Z</time>
      </trkpt>
      <trkpt lat="49.61821" lon="4.98177">
        <ele>298.63</ele>
        <time>2020-08-03T11:28:37Z</time>
      </trkpt>
      <trkpt lat="49.61815" lon="4.98196">
        <ele>301.03</ele>
        <time>2020-08-03T11:28:49Z</time>
      </trkpt>
      <trkpt lat="49.61812" lon="4.98218">
        <ele>303.91</ele>
        <time>2020-08-03T11:29:02Z</time>
      </trkpt>
      <trkpt lat="49.61807" lon="4.98234">
        <ele>307.28</ele>
        <time>2020-08-03T11:29:13Z</time>
      </trkpt>
      <trkpt lat="49.61803" lon="4.98256">
        <ele>309.68</ele>
        <time>2020-08-03T11:29:26Z</time>
      </trkpt>
      <trkpt lat="49.61801" lon="4.98278">
        <ele>309.68</ele>
        <time>2020-08-03T11:29:39Z</time>
      </trkpt>
      <trkpt lat="49.61802" lon="4.98302">
        <ele>309.2</ele>
        <time>2020-08-03T11:29:53Z</time>
      </trkpt>
      <trkpt lat="49.618" lon="4.98323">
        <ele>308.24</ele>
        <time>2020-08-03T11:30:07Z</time>
      </trkpt>
      <trkpt lat="49.61799" lon="4.9833">
        <ele>308.24</ele>
        <time>2020-08-03T11:30:11Z</time>
      </trkpt>
      <trkpt lat="49.61791" lon="4.9835">
        <ele>307.76</ele>
        <time>2020-08-03T11:30:24Z</time>
      </trkpt>
      <trkpt lat="49.61786" lon="4.98372">
        <ele>307.28</ele>
        <time>2020-08-03T11:30:37Z</time>
      </trkpt>
      <trkpt lat="49.61781" lon="4.98393">
        <ele>306.32</ele>
        <time>2020-08-03T11:30:51Z</time>
      </trkpt>
      <trkpt lat="49.61771" lon="4.98416">
        <ele>306.8</ele>
        <time>2020-08-03T11:31:05Z</time>
      </trkpt>
      <trkpt lat="49.6177" lon="4.9842">
        <ele>306.32</ele>
        <time>2020-08-03T11:31:09Z</time>
      </trkpt>
      <trkpt lat="49.61769" lon="4.98423">
        <ele>306.32</ele>
        <time>2020-08-03T11:31:11Z</time>
      </trkpt>
      <trkpt lat="49.61768" lon="4.98427">
        <ele>306.8</ele>
        <time>2020-08-03T11:31:13Z</time>
      </trkpt>
      <trkpt lat="49.61764" lon="4.98434">
        <ele>307.76</ele>
        <time>2020-08-03T11:31:17Z</time>
      </trkpt>
      <trkpt lat="49.61765" lon="4.9845">
        <ele>309.2</ele>
        <time>2020-08-03T11:31:28Z</time>
      </trkpt>
      <trkpt lat="49.61762" lon="4.98463">
        <ele>309.2</ele>
        <time>2020-08-03T11:31:35Z</time>
      </trkpt>
      <trkpt lat="49.61757" lon="4.98482">
        <ele>307.76</ele>
        <time>2020-08-03T11:31:49Z</time>
      </trkpt>
      <trkpt lat="49.61753" lon="4.98506">
        <ele>306.8</ele>
        <time>2020-08-03T11:32:03Z</time>
      </trkpt>
      <trkpt lat="49.61751" lon="4.98534">
        <ele>308.24</ele>
        <time>2020-08-03T11:32:18Z</time>
      </trkpt>
      <trkpt lat="49.6175" lon="4.98536">
        <ele>308.24</ele>
        <time>2020-08-03T11:32:19Z</time>
      </trkpt>
      <trkpt lat="49.61747" lon="4.9856">
        <ele>309.68</ele>
        <time>2020-08-03T11:32:35Z</time>
      </trkpt>
      <trkpt lat="49.6174" lon="4.9858">
        <ele>308.24</ele>
        <time>2020-08-03T11:32:51Z</time>
      </trkpt>
      <trkpt lat="49.61738" lon="4.98603">
        <ele>308.72</ele>
        <time>2020-08-03T11:33:06Z</time>
      </trkpt>
      <trkpt lat="49.61736" lon="4.98629">
        <ele>305.84</ele>
        <time>2020-08-03T11:33:20Z</time>
      </trkpt>
      <trkpt lat="49.61734" lon="4.98656">
        <ele>304.39</ele>
        <time>2020-08-03T11:33:37Z</time>
      </trkpt>
      <trkpt lat="49.61733" lon="4.98661">
        <ele>303.91</ele>
        <time>2020-08-03T11:33:41Z</time>
      </trkpt>
      <trkpt lat="49.61724" lon="4.98685">
        <ele>303.43</ele>
        <time>2020-08-03T11:33:56Z</time>
      </trkpt>
      <trkpt lat="49.61718" lon="4.987">
        <ele>302.95</ele>
        <time>2020-08-03T11:34:07Z</time>
      </trkpt>
      <trkpt lat="49.61703" lon="4.98716">
        <ele>305.36</ele>
        <time>2020-08-03T11:34:21Z</time>
      </trkpt>
      <trkpt lat="49.61692" lon="4.98734">
        <ele>307.76</ele>
        <time>2020-08-03T11:34:35Z</time>
      </trkpt>
      <trkpt lat="49.61684" lon="4.98751">
        <ele>309.68</ele>
        <time>2020-08-03T11:34:48Z</time>
      </trkpt>
      <trkpt lat="49.61675" lon="4.98766">
        <ele>310.16</ele>
        <time>2020-08-03T11:35:02Z</time>
      </trkpt>
      <trkpt lat="49.61665" lon="4.98787">
        <ele>311.12</ele>
        <time>2020-08-03T11:35:15Z</time>
      </trkpt>
      <trkpt lat="49.61656" lon="4.98805">
        <ele>313.05</ele>
        <time>2020-08-03T11:35:29Z</time>
      </trkpt>
      <trkpt lat="49.6165" lon="4.98825">
        <ele>313.05</ele>
        <time>2020-08-03T11:35:44Z</time>
      </trkpt>
      <trkpt lat="49.61642" lon="4.98847">
        <ele>311.12</ele>
        <time>2020-08-03T11:36:00Z</time>
      </trkpt>
      <trkpt lat="49.61633" lon="4.98858">
        <ele>312.57</ele>
        <time>2020-08-03T11:36:11Z</time>
      </trkpt>
      <trkpt lat="49.61624" lon="4.98879">
        <ele>315.93</ele>
        <time>2020-08-03T11:36:26Z</time>
      </trkpt>
      <trkpt lat="49.61615" lon="4.98893">
        <ele>319.3</ele>
        <time>2020-08-03T11:36:39Z</time>
      </trkpt>
      <trkpt lat="49.61605" lon="4.98908">
        <ele>320.26</ele>
        <time>2020-08-03T11:36:53Z</time>
      </trkpt>
      <trkpt lat="49.616" lon="4.98936">
        <ele>317.85</ele>
        <time>2020-08-03T11:37:09Z</time>
      </trkpt>
      <trkpt lat="49.61594" lon="4.9895">
        <ele>315.45</ele>
        <time>2020-08-03T11:37:24Z</time>
      </trkpt>
      <trkpt lat="49.61589" lon="4.98977">
        <ele>314.01</ele>
        <time>2020-08-03T11:37:40Z</time>
      </trkpt>
      <trkpt lat="49.61588" lon="4.98979">
        <ele>314.01</ele>
        <time>2020-08-03T11:37:41Z</time>
      </trkpt>
      <trkpt lat="49.61582" lon="4.99004">
        <ele>309.68</ele>
        <time>2020-08-03T11:37:57Z</time>
      </trkpt>
      <trkpt lat="49.61571" lon="4.99027">
        <ele>307.76</ele>
        <time>2020-08-03T11:38:12Z</time>
      </trkpt>
      <trkpt lat="49.61563" lon="4.99046">
        <ele>308.24</ele>
        <time>2020-08-03T11:38:26Z</time>
      </trkpt>
      <trkpt lat="49.61556" lon="4.99068">
        <ele>308.72</ele>
        <time>2020-08-03T11:38:42Z</time>
      </trkpt>
      <trkpt lat="49.61547" lon="4.99082">
        <ele>310.64</ele>
        <time>2020-08-03T11:38:55Z</time>
      </trkpt>
      <trkpt lat="49.61542" lon="4.99098">
        <ele>312.57</ele>
        <time>2020-08-03T11:39:07Z</time>
      </trkpt>
      <trkpt lat="49.6154" lon="4.99122">
        <ele>309.68</ele>
        <time>2020-08-03T11:39:23Z</time>
      </trkpt>
      <trkpt lat="49.6153" lon="4.99142">
        <ele>306.8</ele>
        <time>2020-08-03T11:39:39Z</time>
      </trkpt>
      <trkpt lat="49.61526" lon="4.99153">
        <ele>305.84</ele>
        <time>2020-08-03T11:39:47Z</time>
      </trkpt>
      <trkpt lat="49.61524" lon="4.99156">
        <ele>305.84</ele>
        <time>2020-08-03T11:39:49Z</time>
      </trkpt>
      <trkpt lat="49.61519" lon="4.9917">
        <ele>306.32</ele>
        <time>2020-08-03T11:39:59Z</time>
      </trkpt>
      <trkpt lat="49.61505" lon="4.99183">
        <ele>309.68</ele>
        <time>2020-08-03T11:40:15Z</time>
      </trkpt>
      <trkpt lat="49.61499" lon="4.99192">
        <ele>305.36</ele>
        <time>2020-08-03T11:40:31Z</time>
      </trkpt>
      <trkpt lat="49.61481" lon="4.99203">
        <ele>299.11</ele>
        <time>2020-08-03T11:40:54Z</time>
      </trkpt>
      <trkpt lat="49.61477" lon="4.99209">
        <ele>298.63</ele>
        <time>2020-08-03T11:41:01Z</time>
      </trkpt>
      <trkpt lat="49.61463" lon="4.99225">
        <ele>297.18</ele>
        <time>2020-08-03T11:41:17Z</time>
      </trkpt>
      <trkpt lat="49.61454" lon="4.99235">
        <ele>293.34</ele>
        <time>2020-08-03T11:41:30Z</time>
      </trkpt>
      <trkpt lat="49.61454" lon="4.99242">
        <ele>291.9</ele>
        <time>2020-08-03T11:41:33Z</time>
      </trkpt>
      <trkpt lat="49.61447" lon="4.9926">
        <ele>296.7</ele>
        <time>2020-08-03T11:41:49Z</time>
      </trkpt>
      <trkpt lat="49.61446" lon="4.99285">
        <ele>302.47</ele>
        <time>2020-08-03T11:42:04Z</time>
      </trkpt>
      <trkpt lat="49.61444" lon="4.99306">
        <ele>304.39</ele>
        <time>2020-08-03T11:42:16Z</time>
      </trkpt>
      <trkpt lat="49.61444" lon="4.99333">
        <ele>305.36</ele>
        <time>2020-08-03T11:42:32Z</time>
      </trkpt>
      <trkpt lat="49.61442" lon="4.99357">
        <ele>304.88</ele>
        <time>2020-08-03T11:42:49Z</time>
      </trkpt>
      <trkpt lat="49.61442" lon="4.9936">
        <ele>304.88</ele>
        <time>2020-08-03T11:42:51Z</time>
      </trkpt>
      <trkpt lat="49.61436" lon="4.99378">
        <ele>303.91</ele>
        <time>2020-08-03T11:43:06Z</time>
      </trkpt>
      <trkpt lat="49.61434" lon="4.99383">
        <ele>303.91</ele>
        <time>2020-08-03T11:43:10Z</time>
      </trkpt>
      <trkpt lat="49.61427" lon="4.9941">
        <ele>301.99</ele>
        <time>2020-08-03T11:43:27Z</time>
      </trkpt>
      <trkpt lat="49.6142" lon="4.99432">
        <ele>299.59</ele>
        <time>2020-08-03T11:43:42Z</time>
      </trkpt>
      <trkpt lat="49.61415" lon="4.99458">
        <ele>293.34</ele>
        <time>2020-08-03T11:43:56Z</time>
      </trkpt>
      <trkpt lat="49.61407" lon="4.9948">
        <ele>285.17</ele>
        <time>2020-08-03T11:44:13Z</time>
      </trkpt>
      <trkpt lat="49.61397" lon="4.99505">
        <ele>283.25</ele>
        <time>2020-08-03T11:44:28Z</time>
      </trkpt>
      <trkpt lat="49.61395" lon="4.99512">
        <ele>281.8</ele>
        <time>2020-08-03T11:44:32Z</time>
      </trkpt>
      <trkpt lat="49.61388" lon="4.9953">
        <ele>282.28</ele>
        <time>2020-08-03T11:44:45Z</time>
      </trkpt>
      <trkpt lat="49.61377" lon="4.99547">
        <ele>284.69</ele>
        <time>2020-08-03T11:45:01Z</time>
      </trkpt>
      <trkpt lat="49.6137" lon="4.9957">
        <ele>286.61</ele>
        <time>2020-08-03T11:45:16Z</time>
      </trkpt>
      <trkpt lat="49.6137" lon="4.99574">
        <ele>286.61</ele>
        <time>2020-08-03T11:45:19Z</time>
      </trkpt>
      <trkpt lat="49.61369" lon="4.99601">
        <ele>285.17</ele>
        <time>2020-08-03T11:45:36Z</time>
      </trkpt>
      <trkpt lat="49.61368" lon="4.99614">
        <ele>285.65</ele>
        <time>2020-08-03T11:45:43Z</time>
      </trkpt>
      <trkpt lat="49.61365" lon="4.99639">
        <ele>288.53</ele>
        <time>2020-08-03T11:45:59Z</time>
      </trkpt>
      <trkpt lat="49.61361" lon="4.99665">
        <ele>289.97</ele>
        <time>2020-08-03T11:46:15Z</time>
      </trkpt>
      <trkpt lat="49.61357" lon="4.99695">
        <ele>291.42</ele>
        <time>2020-08-03T11:46:31Z</time>
      </trkpt>
      <trkpt lat="49.61358" lon="4.99714">
        <ele>291.42</ele>
        <time>2020-08-03T11:46:42Z</time>
      </trkpt>
      <trkpt lat="49.61356" lon="4.99744">
        <ele>291.9</ele>
        <time>2020-08-03T11:46:59Z</time>
      </trkpt>
      <trkpt lat="49.61359" lon="4.99763">
        <ele>289.49</ele>
        <time>2020-08-03T11:47:11Z</time>
      </trkpt>
      <trkpt lat="49.61349" lon="4.99786">
        <ele>292.86</ele>
        <time>2020-08-03T11:47:27Z</time>
      </trkpt>
      <trkpt lat="49.61347" lon="4.9981">
        <ele>294.3</ele>
        <time>2020-08-03T11:47:42Z</time>
      </trkpt>
      <trkpt lat="49.61347" lon="4.9983">
        <ele>295.26</ele>
        <time>2020-08-03T11:47:52Z</time>
      </trkpt>
      <trkpt lat="49.61346" lon="4.99855">
        <ele>298.15</ele>
        <time>2020-08-03T11:48:08Z</time>
      </trkpt>
      <trkpt lat="49.61346" lon="4.99856">
        <ele>298.15</ele>
        <time>2020-08-03T11:48:09Z</time>
      </trkpt>
      <trkpt lat="49.61343" lon="4.99886">
        <ele>300.07</ele>
        <time>2020-08-03T11:48:27Z</time>
      </trkpt>
      <trkpt lat="49.61344" lon="4.99893">
        <ele>299.59</ele>
        <time>2020-08-03T11:48:30Z</time>
      </trkpt>
      <trkpt lat="49.61344" lon="4.99915">
        <ele>298.63</ele>
        <time>2020-08-03T11:48:42Z</time>
      </trkpt>
      <trkpt lat="49.61343" lon="4.99924">
        <ele>298.63</ele>
        <time>2020-08-03T11:48:47Z</time>
      </trkpt>
      <trkpt lat="49.61336" lon="4.99938">
        <ele>299.59</ele>
        <time>2020-08-03T11:48:58Z</time>
      </trkpt>
      <trkpt lat="49.61336" lon="4.99963">
        <ele>295.26</ele>
        <time>2020-08-03T11:49:11Z</time>
      </trkpt>
      <trkpt lat="49.61337" lon="4.99968">
        <ele>294.3</ele>
        <time>2020-08-03T11:49:14Z</time>
      </trkpt>
      <trkpt lat="49.6134" lon="4.99996">
        <ele>292.38</ele>
        <time>2020-08-03T11:49:28Z</time>
      </trkpt>
      <trkpt lat="49.61342" lon="5.00017">
        <ele>289.49</ele>
        <time>2020-08-03T11:49:41Z</time>
      </trkpt>
      <trkpt lat="49.61346" lon="5.00037">
        <ele>287.57</ele>
        <time>2020-08-03T11:49:54Z</time>
      </trkpt>
      <trkpt lat="49.61345" lon="5.00045">
        <ele>287.57</ele>
        <time>2020-08-03T11:49:58Z</time>
      </trkpt>
      <trkpt lat="49.61349" lon="5.00076">
        <ele>284.69</ele>
        <time>2020-08-03T11:50:15Z</time>
      </trkpt>
      <trkpt lat="49.61349" lon="5.0009">
        <ele>287.09</ele>
        <time>2020-08-03T11:50:25Z</time>
      </trkpt>
      <trkpt lat="49.6135" lon="5.001">
        <ele>287.57</ele>
        <time>2020-08-03T11:50:30Z</time>
      </trkpt>
      <trkpt lat="49.61355" lon="5.00118">
        <ele>286.61</ele>
        <time>2020-08-03T11:50:41Z</time>
      </trkpt>
      <trkpt lat="49.61355" lon="5.00129">
        <ele>284.21</ele>
        <time>2020-08-03T11:50:54Z</time>
      </trkpt>
      <trkpt lat="49.61342" lon="5.00122">
        <ele>280.84</ele>
        <time>2020-08-03T11:51:10Z</time>
      </trkpt>
      <trkpt lat="49.6133" lon="5.00108">
        <ele>280.36</ele>
        <time>2020-08-03T11:51:25Z</time>
      </trkpt>
      <trkpt lat="49.6132" lon="5.00099">
        <ele>277.48</ele>
        <time>2020-08-03T11:51:41Z</time>
      </trkpt>
      <trkpt lat="49.61308" lon="5.00087">
        <ele>275.56</ele>
        <time>2020-08-03T11:51:56Z</time>
      </trkpt>
      <trkpt lat="49.61305" lon="5.00085">
        <ele>275.56</ele>
        <time>2020-08-03T11:51:59Z</time>
      </trkpt>
      <trkpt lat="49.61295" lon="5.00075">
        <ele>276.52</ele>
        <time>2020-08-03T11:52:09Z</time>
      </trkpt>
      <trkpt lat="49.61287" lon="5.00065">
        <ele>276.52</ele>
        <time>2020-08-03T11:52:22Z</time>
      </trkpt>
      <trkpt lat="49.61284" lon="5.0006">
        <ele>276.52</ele>
        <time>2020-08-03T11:52:25Z</time>
      </trkpt>
      <trkpt lat="49.61282" lon="5.00058">
        <ele>276.52</ele>
        <time>2020-08-03T11:52:27Z</time>
      </trkpt>
      <trkpt lat="49.61278" lon="5.00055">
        <ele>277</ele>
        <time>2020-08-03T11:52:31Z</time>
      </trkpt>
      <trkpt lat="49.61267" lon="5.00046">
        <ele>277.48</ele>
        <time>2020-08-03T11:52:42Z</time>
      </trkpt>
      <trkpt lat="49.61266" lon="5.0004">
        <ele>276.52</ele>
        <time>2020-08-03T11:52:45Z</time>
      </trkpt>
      <trkpt lat="49.61262" lon="5.00031">
        <ele>275.07</ele>
        <time>2020-08-03T11:52:56Z</time>
      </trkpt>
      <trkpt lat="49.61254" lon="5.00017">
        <ele>274.59</ele>
        <time>2020-08-03T11:53:07Z</time>
      </trkpt>
      <trkpt lat="49.61244" lon="4.99999">
        <ele>273.15</ele>
        <time>2020-08-03T11:53:21Z</time>
      </trkpt>
      <trkpt lat="49.61238" lon="4.99985">
        <ele>272.19</ele>
        <time>2020-08-03T11:53:30Z</time>
      </trkpt>
      <trkpt lat="49.61232" lon="4.99972">
        <ele>269.79</ele>
        <time>2020-08-03T11:53:41Z</time>
      </trkpt>
      <trkpt lat="49.61222" lon="4.99955">
        <ele>269.79</ele>
        <time>2020-08-03T11:53:55Z</time>
      </trkpt>
      <trkpt lat="49.61212" lon="4.99942">
        <ele>270.75</ele>
        <time>2020-08-03T11:54:10Z</time>
      </trkpt>
      <trkpt lat="49.61199" lon="4.99926">
        <ele>269.31</ele>
        <time>2020-08-03T11:54:26Z</time>
      </trkpt>
      <trkpt lat="49.61192" lon="4.99908">
        <ele>267.38</ele>
        <time>2020-08-03T11:54:40Z</time>
      </trkpt>
      <trkpt lat="49.61189" lon="4.99907">
        <ele>266.42</ele>
        <time>2020-08-03T11:54:44Z</time>
      </trkpt>
      <trkpt lat="49.61181" lon="4.99912">
        <ele>264.98</ele>
        <time>2020-08-03T11:54:49Z</time>
      </trkpt>
      <trkpt lat="49.61175" lon="4.9992">
        <ele>263.06</ele>
        <time>2020-08-03T11:54:57Z</time>
      </trkpt>
      <trkpt lat="49.61172" lon="4.99925">
        <ele>263.06</ele>
        <time>2020-08-03T11:55:00Z</time>
      </trkpt>
      <trkpt lat="49.61159" lon="4.99947">
        <ele>264.5</ele>
        <time>2020-08-03T11:55:17Z</time>
      </trkpt>
      <trkpt lat="49.61148" lon="4.99962">
        <ele>267.38</ele>
        <time>2020-08-03T11:55:29Z</time>
      </trkpt>
      <trkpt lat="49.61143" lon="4.99975">
        <ele>269.79</ele>
        <time>2020-08-03T11:55:39Z</time>
      </trkpt>
      <trkpt lat="49.61142" lon="5.00002">
        <ele>271.23</ele>
        <time>2020-08-03T11:55:54Z</time>
      </trkpt>
      <trkpt lat="49.61139" lon="5.00014">
        <ele>272.19</ele>
        <time>2020-08-03T11:56:02Z</time>
      </trkpt>
      <trkpt lat="49.61137" lon="5.00024">
        <ele>273.15</ele>
        <time>2020-08-03T11:56:08Z</time>
      </trkpt>
      <trkpt lat="49.61136" lon="5.00052">
        <ele>274.11</ele>
        <time>2020-08-03T11:56:23Z</time>
      </trkpt>
      <trkpt lat="49.61134" lon="5.00058">
        <ele>276.04</ele>
        <time>2020-08-03T11:56:28Z</time>
      </trkpt>
      <trkpt lat="49.61131" lon="5.0008">
        <ele>280.84</ele>
        <time>2020-08-03T11:56:43Z</time>
      </trkpt>
      <trkpt lat="49.61124" lon="5.00095">
        <ele>285.65</ele>
        <time>2020-08-03T11:56:56Z</time>
      </trkpt>
      <trkpt lat="49.61127" lon="5.00126">
        <ele>281.32</ele>
        <time>2020-08-03T11:57:13Z</time>
      </trkpt>
      <trkpt lat="49.61123" lon="5.00144">
        <ele>280.36</ele>
        <time>2020-08-03T11:57:27Z</time>
      </trkpt>
      <trkpt lat="49.61116" lon="5.00164">
        <ele>280.84</ele>
        <time>2020-08-03T11:57:41Z</time>
      </trkpt>
      <trkpt lat="49.61114" lon="5.0018">
        <ele>282.28</ele>
        <time>2020-08-03T11:57:51Z</time>
      </trkpt>
      <trkpt lat="49.61113" lon="5.00209">
        <ele>281.32</ele>
        <time>2020-08-03T11:58:08Z</time>
      </trkpt>
      <trkpt lat="49.6111" lon="5.0022">
        <ele>282.28</ele>
        <time>2020-08-03T11:58:14Z</time>
      </trkpt>
      <trkpt lat="49.61109" lon="5.00231">
        <ele>280.84</ele>
        <time>2020-08-03T11:58:24Z</time>
      </trkpt>
      <trkpt lat="49.61103" lon="5.00255">
        <ele>280.36</ele>
        <time>2020-08-03T11:58:40Z</time>
      </trkpt>
      <trkpt lat="49.61107" lon="5.00282">
        <ele>276.52</ele>
        <time>2020-08-03T11:58:52Z</time>
      </trkpt>
      <trkpt lat="49.61102" lon="5.00293">
        <ele>274.11</ele>
        <time>2020-08-03T11:59:02Z</time>
      </trkpt>
      <trkpt lat="49.61098" lon="5.00301">
        <ele>273.15</ele>
        <time>2020-08-03T11:59:07Z</time>
      </trkpt>
      <trkpt lat="49.61092" lon="5.00316">
        <ele>272.19</ele>
        <time>2020-08-03T11:59:19Z</time>
      </trkpt>
      <trkpt lat="49.61083" lon="5.00342">
        <ele>271.71</ele>
        <time>2020-08-03T11:59:35Z</time>
      </trkpt>
      <trkpt lat="49.61081" lon="5.00363">
        <ele>274.59</ele>
        <time>2020-08-03T11:59:50Z</time>
      </trkpt>
      <trkpt lat="49.6108" lon="5.00364">
        <ele>274.59</ele>
        <time>2020-08-03T11:59:52Z</time>
      </trkpt>
      <trkpt lat="49.6108" lon="5.00388">
        <ele>277</ele>
        <time>2020-08-03T12:00:07Z</time>
      </trkpt>
      <trkpt lat="49.61077" lon="5.00404">
        <ele>277.48</ele>
        <time>2020-08-03T12:00:16Z</time>
      </trkpt>
      <trkpt lat="49.6107" lon="5.00422">
        <ele>276.52</ele>
        <time>2020-08-03T12:00:30Z</time>
      </trkpt>
      <trkpt lat="49.61062" lon="5.00429">
        <ele>272.67</ele>
        <time>2020-08-03T12:00:44Z</time>
      </trkpt>
      <trkpt lat="49.61048" lon="5.00434">
        <ele>276.04</ele>
        <time>2020-08-03T12:00:57Z</time>
      </trkpt>
      <trkpt lat="49.61036" lon="5.00452">
        <ele>274.11</ele>
        <time>2020-08-03T12:01:11Z</time>
      </trkpt>
      <trkpt lat="49.61031" lon="5.00459">
        <ele>272.19</ele>
        <time>2020-08-03T12:01:20Z</time>
      </trkpt>
      <trkpt lat="49.6101" lon="5.00476">
        <ele>274.11</ele>
        <time>2020-08-03T12:01:36Z</time>
      </trkpt>
      <trkpt lat="49.61" lon="5.00492">
        <ele>270.27</ele>
        <time>2020-08-03T12:01:51Z</time>
      </trkpt>
      <trkpt lat="49.60991" lon="5.00495">
        <ele>262.58</ele>
        <time>2020-08-03T12:02:05Z</time>
      </trkpt>
      <trkpt lat="49.60971" lon="5.00494">
        <ele>257.77</ele>
        <time>2020-08-03T12:02:20Z</time>
      </trkpt>
      <trkpt lat="49.60963" lon="5.00498">
        <ele>254.89</ele>
        <time>2020-08-03T12:02:36Z</time>
      </trkpt>
      <trkpt lat="49.60952" lon="5.00504">
        <ele>252</ele>
        <time>2020-08-03T12:02:50Z</time>
      </trkpt>
      <trkpt lat="49.60935" lon="5.00504">
        <ele>249.6</ele>
        <time>2020-08-03T12:03:06Z</time>
      </trkpt>
      <trkpt lat="49.60916" lon="5.00505">
        <ele>246.23</ele>
        <time>2020-08-03T12:03:22Z</time>
      </trkpt>
      <trkpt lat="49.60902" lon="5.00514">
        <ele>246.23</ele>
        <time>2020-08-03T12:03:39Z</time>
      </trkpt>
      <trkpt lat="49.60887" lon="5.00526">
        <ele>245.75</ele>
        <time>2020-08-03T12:03:55Z</time>
      </trkpt>
      <trkpt lat="49.60878" lon="5.00544">
        <ele>245.27</ele>
        <time>2020-08-03T12:04:10Z</time>
      </trkpt>
      <trkpt lat="49.6087" lon="5.0056">
        <ele>244.79</ele>
        <time>2020-08-03T12:04:27Z</time>
      </trkpt>
      <trkpt lat="49.60869" lon="5.00565">
        <ele>242.87</ele>
        <time>2020-08-03T12:04:43Z</time>
      </trkpt>
      <trkpt lat="49.60863" lon="5.00568">
        <ele>240.47</ele>
        <time>2020-08-03T12:04:59Z</time>
      </trkpt>
      <trkpt lat="49.60858" lon="5.00568">
        <ele>236.14</ele>
        <time>2020-08-03T12:05:15Z</time>
      </trkpt>
      <trkpt lat="49.60859" lon="5.00576">
        <ele>235.18</ele>
        <time>2020-08-03T12:05:32Z</time>
      </trkpt>
      <trkpt lat="49.60867" lon="5.00579">
        <ele>234.7</ele>
        <time>2020-08-03T12:05:49Z</time>
      </trkpt>
      <trkpt lat="49.60876" lon="5.00565">
        <ele>234.22</ele>
        <time>2020-08-03T12:06:04Z</time>
      </trkpt>
      <trkpt lat="49.60886" lon="5.00552">
        <ele>229.89</ele>
        <time>2020-08-03T12:06:18Z</time>
      </trkpt>
      <trkpt lat="49.60893" lon="5.00543">
        <ele>229.41</ele>
        <time>2020-08-03T12:06:31Z</time>
      </trkpt>
      <trkpt lat="49.60904" lon="5.00526">
        <ele>236.14</ele>
        <time>2020-08-03T12:06:49Z</time>
      </trkpt>
      <trkpt lat="49.60912" lon="5.00518">
        <ele>241.91</ele>
        <time>2020-08-03T12:07:08Z</time>
      </trkpt>
      <trkpt lat="49.60915" lon="5.00514">
        <ele>241.43</ele>
        <time>2020-08-03T12:07:33Z</time>
      </trkpt>
      <trkpt lat="49.60926" lon="5.00516">
        <ele>241.91</ele>
        <time>2020-08-03T12:07:48Z</time>
      </trkpt>
      <trkpt lat="49.60945" lon="5.00519">
        <ele>247.2</ele>
        <time>2020-08-03T12:08:04Z</time>
      </trkpt>
      <trkpt lat="49.60961" lon="5.00513">
        <ele>252.48</ele>
        <time>2020-08-03T12:08:20Z</time>
      </trkpt>
      <trkpt lat="49.60981" lon="5.00511">
        <ele>255.37</ele>
        <time>2020-08-03T12:08:39Z</time>
      </trkpt>
      <trkpt lat="49.6099" lon="5.0051">
        <ele>251.04</ele>
        <time>2020-08-03T12:08:46Z</time>
      </trkpt>
      <trkpt lat="49.60986" lon="5.00526">
        <ele>248.64</ele>
        <time>2020-08-03T12:09:02Z</time>
      </trkpt>
      <trkpt lat="49.60986" lon="5.00529">
        <ele>249.12</ele>
        <time>2020-08-03T12:09:05Z</time>
      </trkpt>
      <trkpt lat="49.6098" lon="5.00551">
        <ele>250.08</ele>
        <time>2020-08-03T12:09:21Z</time>
      </trkpt>
      <trkpt lat="49.60982" lon="5.00575">
        <ele>252.48</ele>
        <time>2020-08-03T12:09:37Z</time>
      </trkpt>
      <trkpt lat="49.6098" lon="5.00603">
        <ele>255.85</ele>
        <time>2020-08-03T12:09:54Z</time>
      </trkpt>
      <trkpt lat="49.60975" lon="5.00623">
        <ele>260.65</ele>
        <time>2020-08-03T12:10:10Z</time>
      </trkpt>
      <trkpt lat="49.60979" lon="5.00645">
        <ele>261.14</ele>
        <time>2020-08-03T12:10:24Z</time>
      </trkpt>
      <trkpt lat="49.60984" lon="5.0067">
        <ele>261.62</ele>
        <time>2020-08-03T12:10:38Z</time>
      </trkpt>
      <trkpt lat="49.60981" lon="5.00688">
        <ele>262.58</ele>
        <time>2020-08-03T12:10:49Z</time>
      </trkpt>
      <trkpt lat="49.60978" lon="5.00707">
        <ele>265.46</ele>
        <time>2020-08-03T12:11:01Z</time>
      </trkpt>
      <trkpt lat="49.60979" lon="5.00709">
        <ele>265.46</ele>
        <time>2020-08-03T12:11:03Z</time>
      </trkpt>
      <trkpt lat="49.60987" lon="5.00732">
        <ele>264.5</ele>
        <time>2020-08-03T12:11:17Z</time>
      </trkpt>
      <trkpt lat="49.60985" lon="5.00734">
        <ele>264.5</ele>
        <time>2020-08-03T12:11:20Z</time>
      </trkpt>
      <trkpt lat="49.60974" lon="5.00758">
        <ele>265.46</ele>
        <time>2020-08-03T12:11:37Z</time>
      </trkpt>
      <trkpt lat="49.60965" lon="5.00775">
        <ele>268.83</ele>
        <time>2020-08-03T12:11:52Z</time>
      </trkpt>
      <trkpt lat="49.60965" lon="5.0079">
        <ele>272.19</ele>
        <time>2020-08-03T12:12:05Z</time>
      </trkpt>
      <trkpt lat="49.6096" lon="5.00805">
        <ele>275.56</ele>
        <time>2020-08-03T12:12:17Z</time>
      </trkpt>
      <trkpt lat="49.60961" lon="5.00816">
        <ele>276.52</ele>
        <time>2020-08-03T12:12:23Z</time>
      </trkpt>
      <trkpt lat="49.60955" lon="5.0084">
        <ele>277.96</ele>
        <time>2020-08-03T12:12:41Z</time>
      </trkpt>
      <trkpt lat="49.60948" lon="5.00861">
        <ele>277</ele>
        <time>2020-08-03T12:12:57Z</time>
      </trkpt>
      <trkpt lat="49.6094" lon="5.00882">
        <ele>273.15</ele>
        <time>2020-08-03T12:13:13Z</time>
      </trkpt>
      <trkpt lat="49.60939" lon="5.009">
        <ele>268.83</ele>
        <time>2020-08-03T12:13:24Z</time>
      </trkpt>
      <trkpt lat="49.60937" lon="5.00922">
        <ele>264.02</ele>
        <time>2020-08-03T12:13:38Z</time>
      </trkpt>
      <trkpt lat="49.60935" lon="5.00938">
        <ele>261.14</ele>
        <time>2020-08-03T12:13:54Z</time>
      </trkpt>
      <trkpt lat="49.60925" lon="5.00949">
        <ele>257.29</ele>
        <time>2020-08-03T12:14:11Z</time>
      </trkpt>
      <trkpt lat="49.6092" lon="5.00949">
        <ele>253.44</ele>
        <time>2020-08-03T12:14:24Z</time>
      </trkpt>
      <trkpt lat="49.60914" lon="5.00979">
        <ele>249.12</ele>
        <time>2020-08-03T12:14:38Z</time>
      </trkpt>
      <trkpt lat="49.60919" lon="5.01008">
        <ele>244.31</ele>
        <time>2020-08-03T12:14:54Z</time>
      </trkpt>
      <trkpt lat="49.60922" lon="5.01034">
        <ele>240.47</ele>
        <time>2020-08-03T12:15:11Z</time>
      </trkpt>
      <trkpt lat="49.60922" lon="5.01054">
        <ele>240.95</ele>
        <time>2020-08-03T12:15:27Z</time>
      </trkpt>
      <trkpt lat="49.60925" lon="5.01064">
        <ele>239.51</ele>
        <time>2020-08-03T12:15:32Z</time>
      </trkpt>
      <trkpt lat="49.6093" lon="5.0109">
        <ele>234.7</ele>
        <time>2020-08-03T12:15:51Z</time>
      </trkpt>
      <trkpt lat="49.60933" lon="5.0111">
        <ele>234.22</ele>
        <time>2020-08-03T12:16:07Z</time>
      </trkpt>
      <trkpt lat="49.60942" lon="5.0114">
        <ele>231.33</ele>
        <time>2020-08-03T12:16:23Z</time>
      </trkpt>
      <trkpt lat="49.60947" lon="5.01167">
        <ele>231.81</ele>
        <time>2020-08-03T12:16:40Z</time>
      </trkpt>
      <trkpt lat="49.6095" lon="5.01195">
        <ele>231.81</ele>
        <time>2020-08-03T12:16:54Z</time>
      </trkpt>
      <trkpt lat="49.60955" lon="5.01215">
        <ele>232.3</ele>
        <time>2020-08-03T12:17:07Z</time>
      </trkpt>
      <trkpt lat="49.60968" lon="5.01249">
        <ele>230.37</ele>
        <time>2020-08-03T12:17:25Z</time>
      </trkpt>
      <trkpt lat="49.60969" lon="5.01251">
        <ele>230.37</ele>
        <time>2020-08-03T12:17:26Z</time>
      </trkpt>
      <trkpt lat="49.60973" lon="5.01265">
        <ele>230.37</ele>
        <time>2020-08-03T12:17:37Z</time>
      </trkpt>
      <trkpt lat="49.60979" lon="5.01292">
        <ele>230.85</ele>
        <time>2020-08-03T12:17:54Z</time>
      </trkpt>
      <trkpt lat="49.60986" lon="5.01311">
        <ele>233.26</ele>
        <time>2020-08-03T12:18:06Z</time>
      </trkpt>
      <trkpt lat="49.60992" lon="5.01331">
        <ele>234.7</ele>
        <time>2020-08-03T12:18:18Z</time>
      </trkpt>
      <trkpt lat="49.60999" lon="5.01354">
        <ele>235.66</ele>
        <time>2020-08-03T12:18:31Z</time>
      </trkpt>
      <trkpt lat="49.60999" lon="5.01357">
        <ele>235.66</ele>
        <time>2020-08-03T12:18:34Z</time>
      </trkpt>
      <trkpt lat="49.61005" lon="5.01383">
        <ele>236.14</ele>
        <time>2020-08-03T12:18:49Z</time>
      </trkpt>
      <trkpt lat="49.61007" lon="5.01409">
        <ele>237.58</ele>
        <time>2020-08-03T12:19:03Z</time>
      </trkpt>
      <trkpt lat="49.61012" lon="5.01428">
        <ele>239.99</ele>
        <time>2020-08-03T12:19:17Z</time>
      </trkpt>
      <trkpt lat="49.61013" lon="5.01449">
        <ele>242.39</ele>
        <time>2020-08-03T12:19:27Z</time>
      </trkpt>
      <trkpt lat="49.61014" lon="5.01468">
        <ele>244.31</ele>
        <time>2020-08-03T12:19:39Z</time>
      </trkpt>
      <trkpt lat="49.61013" lon="5.01486">
        <ele>243.83</ele>
        <time>2020-08-03T12:19:56Z</time>
      </trkpt>
      <trkpt lat="49.61011" lon="5.01498">
        <ele>243.35</ele>
        <time>2020-08-03T12:20:03Z</time>
      </trkpt>
      <trkpt lat="49.61013" lon="5.01505">
        <ele>243.35</ele>
        <time>2020-08-03T12:20:07Z</time>
      </trkpt>
      <trkpt lat="49.61016" lon="5.01527">
        <ele>242.39</ele>
        <time>2020-08-03T12:20:22Z</time>
      </trkpt>
      <trkpt lat="49.61015" lon="5.01531">
        <ele>242.39</ele>
        <time>2020-08-03T12:20:26Z</time>
      </trkpt>
      <trkpt lat="49.61012" lon="5.01558">
        <ele>244.31</ele>
        <time>2020-08-03T12:20:43Z</time>
      </trkpt>
      <trkpt lat="49.61011" lon="5.01573">
        <ele>242.39</ele>
        <time>2020-08-03T12:20:53Z</time>
      </trkpt>
      <trkpt lat="49.61009" lon="5.01588">
        <ele>242.39</ele>
        <time>2020-08-03T12:21:04Z</time>
      </trkpt>
      <trkpt lat="49.61005" lon="5.01607">
        <ele>241.91</ele>
        <time>2020-08-03T12:21:14Z</time>
      </trkpt>
      <trkpt lat="49.61004" lon="5.01613">
        <ele>239.02</ele>
        <time>2020-08-03T12:21:18Z</time>
      </trkpt>
      <trkpt lat="49.61006" lon="5.01638">
        <ele>234.7</ele>
        <time>2020-08-03T12:21:33Z</time>
      </trkpt>
      <trkpt lat="49.61001" lon="5.01662">
        <ele>233.26</ele>
        <time>2020-08-03T12:21:50Z</time>
      </trkpt>
      <trkpt lat="49.61002" lon="5.0169">
        <ele>235.66</ele>
        <time>2020-08-03T12:22:06Z</time>
      </trkpt>
      <trkpt lat="49.61003" lon="5.0171">
        <ele>235.66</ele>
        <time>2020-08-03T12:22:16Z</time>
      </trkpt>
      <trkpt lat="49.61007" lon="5.01724">
        <ele>235.66</ele>
        <time>2020-08-03T12:22:26Z</time>
      </trkpt>
      <trkpt lat="49.61011" lon="5.01754">
        <ele>235.18</ele>
        <time>2020-08-03T12:22:43Z</time>
      </trkpt>
      <trkpt lat="49.61014" lon="5.01776">
        <ele>236.62</ele>
        <time>2020-08-03T12:22:59Z</time>
      </trkpt>
      <trkpt lat="49.61019" lon="5.018">
        <ele>238.54</ele>
        <time>2020-08-03T12:23:13Z</time>
      </trkpt>
      <trkpt lat="49.61023" lon="5.01823">
        <ele>235.66</ele>
        <time>2020-08-03T12:23:29Z</time>
      </trkpt>
      <trkpt lat="49.61022" lon="5.01826">
        <ele>235.18</ele>
        <time>2020-08-03T12:23:31Z</time>
      </trkpt>
      <trkpt lat="49.61025" lon="5.01855">
        <ele>233.74</ele>
        <time>2020-08-03T12:23:49Z</time>
      </trkpt>
      <trkpt lat="49.61026" lon="5.0188">
        <ele>234.7</ele>
        <time>2020-08-03T12:24:07Z</time>
      </trkpt>
      <trkpt lat="49.61027" lon="5.01903">
        <ele>235.66</ele>
        <time>2020-08-03T12:24:22Z</time>
      </trkpt>
      <trkpt lat="49.61028" lon="5.01906">
        <ele>235.66</ele>
        <time>2020-08-03T12:24:24Z</time>
      </trkpt>
      <trkpt lat="49.61031" lon="5.01937">
        <ele>237.58</ele>
        <time>2020-08-03T12:24:41Z</time>
      </trkpt>
      <trkpt lat="49.61038" lon="5.01959">
        <ele>237.58</ele>
        <time>2020-08-03T12:24:56Z</time>
      </trkpt>
      <trkpt lat="49.61043" lon="5.01981">
        <ele>239.99</ele>
        <time>2020-08-03T12:25:09Z</time>
      </trkpt>
      <trkpt lat="49.61043" lon="5.01983">
        <ele>239.99</ele>
        <time>2020-08-03T12:25:10Z</time>
      </trkpt>
      <trkpt lat="49.61048" lon="5.02008">
        <ele>244.31</ele>
        <time>2020-08-03T12:25:25Z</time>
      </trkpt>
      <trkpt lat="49.61048" lon="5.02012">
        <ele>245.27</ele>
        <time>2020-08-03T12:25:29Z</time>
      </trkpt>
      <trkpt lat="49.61055" lon="5.02037">
        <ele>244.31</ele>
        <time>2020-08-03T12:25:45Z</time>
      </trkpt>
      <trkpt lat="49.61062" lon="5.02058">
        <ele>241.43</ele>
        <time>2020-08-03T12:26:00Z</time>
      </trkpt>
      <trkpt lat="49.61067" lon="5.02071">
        <ele>236.62</ele>
        <time>2020-08-03T12:26:13Z</time>
      </trkpt>
      <trkpt lat="49.61073" lon="5.02097">
        <ele>234.7</ele>
        <time>2020-08-03T12:26:29Z</time>
      </trkpt>
      <trkpt lat="49.61077" lon="5.02116">
        <ele>235.18</ele>
        <time>2020-08-03T12:26:41Z</time>
      </trkpt>
      <trkpt lat="49.61083" lon="5.02133">
        <ele>231.81</ele>
        <time>2020-08-03T12:26:56Z</time>
      </trkpt>
      <trkpt lat="49.61083" lon="5.02141">
        <ele>230.37</ele>
        <time>2020-08-03T12:27:01Z</time>
      </trkpt>
      <trkpt lat="49.61089" lon="5.02166">
        <ele>227.49</ele>
        <time>2020-08-03T12:27:16Z</time>
      </trkpt>
      <trkpt lat="49.61092" lon="5.02187">
        <ele>227.97</ele>
        <time>2020-08-03T12:27:30Z</time>
      </trkpt>
      <trkpt lat="49.61092" lon="5.02188">
        <ele>227.97</ele>
        <time>2020-08-03T12:27:31Z</time>
      </trkpt>
      <trkpt lat="49.61096" lon="5.02203">
        <ele>223.16</ele>
        <time>2020-08-03T12:27:44Z</time>
      </trkpt>
      <trkpt lat="49.61101" lon="5.02221">
        <ele>219.32</ele>
        <time>2020-08-03T12:27:57Z</time>
      </trkpt>
      <trkpt lat="49.61106" lon="5.02241">
        <ele>219.8</ele>
        <time>2020-08-03T12:28:12Z</time>
      </trkpt>
      <trkpt lat="49.61114" lon="5.02257">
        <ele>218.36</ele>
        <time>2020-08-03T12:28:25Z</time>
      </trkpt>
      <trkpt lat="49.6112" lon="5.02275">
        <ele>214.99</ele>
        <time>2020-08-03T12:28:42Z</time>
      </trkpt>
      <trkpt lat="49.61121" lon="5.02277">
        <ele>214.51</ele>
        <time>2020-08-03T12:28:43Z</time>
      </trkpt>
      <trkpt lat="49.61126" lon="5.02287">
        <ele>209.22</ele>
        <time>2020-08-03T12:28:54Z</time>
      </trkpt>
      <trkpt lat="49.6113" lon="5.0231">
        <ele>202.98</ele>
        <time>2020-08-03T12:29:11Z</time>
      </trkpt>
      <trkpt lat="49.61131" lon="5.02314">
        <ele>202.01</ele>
        <time>2020-08-03T12:29:15Z</time>
      </trkpt>
      <trkpt lat="49.6113" lon="5.02336">
        <ele>201.53</ele>
        <time>2020-08-03T12:29:30Z</time>
      </trkpt>
      <trkpt lat="49.61126" lon="5.02359">
        <ele>200.57</ele>
        <time>2020-08-03T12:29:45Z</time>
      </trkpt>
      <trkpt lat="49.61123" lon="5.02371">
        <ele>197.69</ele>
        <time>2020-08-03T12:29:54Z</time>
      </trkpt>
      <trkpt lat="49.61121" lon="5.02376">
        <ele>196.73</ele>
        <time>2020-08-03T12:29:58Z</time>
      </trkpt>
      <trkpt lat="49.61119" lon="5.02385">
        <ele>194.8</ele>
        <time>2020-08-03T12:30:03Z</time>
      </trkpt>
      <trkpt lat="49.61115" lon="5.024">
        <ele>193.84</ele>
        <time>2020-08-03T12:30:17Z</time>
      </trkpt>
      <trkpt lat="49.61109" lon="5.0242">
        <ele>187.59</ele>
        <time>2020-08-03T12:30:32Z</time>
      </trkpt>
      <trkpt lat="49.61103" lon="5.02437">
        <ele>186.15</ele>
        <time>2020-08-03T12:30:44Z</time>
      </trkpt>
      <trkpt lat="49.61106" lon="5.02459">
        <ele>184.23</ele>
        <time>2020-08-03T12:31:01Z</time>
      </trkpt>
      <trkpt lat="49.61112" lon="5.02478">
        <ele>184.71</ele>
        <time>2020-08-03T12:31:14Z</time>
      </trkpt>
      <trkpt lat="49.61116" lon="5.02492">
        <ele>181.35</ele>
        <time>2020-08-03T12:31:28Z</time>
      </trkpt>
      <trkpt lat="49.61117" lon="5.02495">
        <ele>180.87</ele>
        <time>2020-08-03T12:31:30Z</time>
      </trkpt>
      <trkpt lat="49.61119" lon="5.02517">
        <ele>174.14</ele>
        <time>2020-08-03T12:31:45Z</time>
      </trkpt>
      <trkpt lat="49.6112" lon="5.02538">
        <ele>171.73</ele>
        <time>2020-08-03T12:32:01Z</time>
      </trkpt>
      <trkpt lat="49.61116" lon="5.02555">
        <ele>174.14</ele>
        <time>2020-08-03T12:32:13Z</time>
      </trkpt>
      <trkpt lat="49.61116" lon="5.02556">
        <ele>175.58</ele>
        <time>2020-08-03T12:32:26Z</time>
      </trkpt>
      <trkpt lat="49.61118" lon="5.02557">
        <ele>176.06</ele>
        <time>2020-08-03T12:32:50Z</time>
      </trkpt>
      <trkpt lat="49.61118" lon="5.02558">
        <ele>177.02</ele>
        <time>2020-08-03T12:33:13Z</time>
      </trkpt>
      <trkpt lat="49.61111" lon="5.02561">
        <ele>179.9</ele>
        <time>2020-08-03T12:33:24Z</time>
      </trkpt>
      <trkpt lat="49.61109" lon="5.02561">
        <ele>180.38</ele>
        <time>2020-08-03T12:33:26Z</time>
      </trkpt>
      <trkpt lat="49.61096" lon="5.02554">
        <ele>181.83</ele>
        <time>2020-08-03T12:33:36Z</time>
      </trkpt>
      <trkpt lat="49.61082" lon="5.02548">
        <ele>184.71</ele>
        <time>2020-08-03T12:33:51Z</time>
      </trkpt>
      <trkpt lat="49.61079" lon="5.02545">
        <ele>184.71</ele>
        <time>2020-08-03T12:33:54Z</time>
      </trkpt>
      <trkpt lat="49.61064" lon="5.02533">
        <ele>185.19</ele>
        <time>2020-08-03T12:34:08Z</time>
      </trkpt>
      <trkpt lat="49.61048" lon="5.02524">
        <ele>185.67</ele>
        <time>2020-08-03T12:34:24Z</time>
      </trkpt>
      <trkpt lat="49.61028" lon="5.02519">
        <ele>184.71</ele>
        <time>2020-08-03T12:34:40Z</time>
      </trkpt>
      <trkpt lat="49.61025" lon="5.02518">
        <ele>184.71</ele>
        <time>2020-08-03T12:34:45Z</time>
      </trkpt>
      <trkpt lat="49.61016" lon="5.0251">
        <ele>184.23</ele>
        <time>2020-08-03T12:34:53Z</time>
      </trkpt>
      <trkpt lat="49.61011" lon="5.02508">
        <ele>184.23</ele>
        <time>2020-08-03T12:34:57Z</time>
      </trkpt>
      <trkpt lat="49.60997" lon="5.02496">
        <ele>182.79</ele>
        <time>2020-08-03T12:35:13Z</time>
      </trkpt>
      <trkpt lat="49.60986" lon="5.02485">
        <ele>183.27</ele>
        <time>2020-08-03T12:35:27Z</time>
      </trkpt>
      <trkpt lat="49.60973" lon="5.02467">
        <ele>180.38</ele>
        <time>2020-08-03T12:35:44Z</time>
      </trkpt>
      <trkpt lat="49.60971" lon="5.02465">
        <ele>179.9</ele>
        <time>2020-08-03T12:35:46Z</time>
      </trkpt>
      <trkpt lat="49.60961" lon="5.02443">
        <ele>177.98</ele>
        <time>2020-08-03T12:36:02Z</time>
      </trkpt>
      <trkpt lat="49.6095" lon="5.02416">
        <ele>176.54</ele>
        <time>2020-08-03T12:36:19Z</time>
      </trkpt>
      <trkpt lat="49.60946" lon="5.02409">
        <ele>175.1</ele>
        <time>2020-08-03T12:36:28Z</time>
      </trkpt>
      <trkpt lat="49.60934" lon="5.02381">
        <ele>173.17</ele>
        <time>2020-08-03T12:36:45Z</time>
      </trkpt>
      <trkpt lat="49.60929" lon="5.02374">
        <ele>173.17</ele>
        <time>2020-08-03T12:36:53Z</time>
      </trkpt>
      <trkpt lat="49.6092" lon="5.0235">
        <ele>172.69</ele>
        <time>2020-08-03T12:37:10Z</time>
      </trkpt>
      <trkpt lat="49.60911" lon="5.02325">
        <ele>172.69</ele>
        <time>2020-08-03T12:37:25Z</time>
      </trkpt>
      <trkpt lat="49.60902" lon="5.02297">
        <ele>173.17</ele>
        <time>2020-08-03T12:37:44Z</time>
      </trkpt>
      <trkpt lat="49.60894" lon="5.02275">
        <ele>174.62</ele>
        <time>2020-08-03T12:37:59Z</time>
      </trkpt>
      <trkpt lat="49.60893" lon="5.02272">
        <ele>175.1</ele>
        <time>2020-08-03T12:38:01Z</time>
      </trkpt>
      <trkpt lat="49.60884" lon="5.02258">
        <ele>174.62</ele>
        <time>2020-08-03T12:38:13Z</time>
      </trkpt>
      <trkpt lat="49.60872" lon="5.02244">
        <ele>173.66</ele>
        <time>2020-08-03T12:38:27Z</time>
      </trkpt>
      <trkpt lat="49.6086" lon="5.02228">
        <ele>173.17</ele>
        <time>2020-08-03T12:38:41Z</time>
      </trkpt>
      <trkpt lat="49.60845" lon="5.02209">
        <ele>174.14</ele>
        <time>2020-08-03T12:38:57Z</time>
      </trkpt>
      <trkpt lat="49.60837" lon="5.02198">
        <ele>177.02</ele>
        <time>2020-08-03T12:39:08Z</time>
      </trkpt>
      <trkpt lat="49.60831" lon="5.02189">
        <ele>179.9</ele>
        <time>2020-08-03T12:39:15Z</time>
      </trkpt>
      <trkpt lat="49.60823" lon="5.02172">
        <ele>184.71</ele>
        <time>2020-08-03T12:39:29Z</time>
      </trkpt>
      <trkpt lat="49.60821" lon="5.02167">
        <ele>184.71</ele>
        <time>2020-08-03T12:39:32Z</time>
      </trkpt>
      <trkpt lat="49.60814" lon="5.02146">
        <ele>186.63</ele>
        <time>2020-08-03T12:39:47Z</time>
      </trkpt>
      <trkpt lat="49.60811" lon="5.02137">
        <ele>187.59</ele>
        <time>2020-08-03T12:39:54Z</time>
      </trkpt>
      <trkpt lat="49.60804" lon="5.02113">
        <ele>190.48</ele>
        <time>2020-08-03T12:40:12Z</time>
      </trkpt>
      <trkpt lat="49.608" lon="5.02087">
        <ele>194.8</ele>
        <time>2020-08-03T12:40:28Z</time>
      </trkpt>
      <trkpt lat="49.60793" lon="5.02055">
        <ele>193.84</ele>
        <time>2020-08-03T12:40:46Z</time>
      </trkpt>
      <trkpt lat="49.60786" lon="5.02033">
        <ele>195.77</ele>
        <time>2020-08-03T12:41:01Z</time>
      </trkpt>
      <trkpt lat="49.60777" lon="5.02003">
        <ele>196.25</ele>
        <time>2020-08-03T12:41:19Z</time>
      </trkpt>
      <trkpt lat="49.60774" lon="5.01993">
        <ele>197.69</ele>
        <time>2020-08-03T12:41:27Z</time>
      </trkpt>
      <trkpt lat="49.6077" lon="5.01969">
        <ele>199.61</ele>
        <time>2020-08-03T12:41:41Z</time>
      </trkpt>
      <trkpt lat="49.60764" lon="5.01944">
        <ele>197.21</ele>
        <time>2020-08-03T12:41:56Z</time>
      </trkpt>
      <trkpt lat="49.60761" lon="5.01933">
        <ele>196.25</ele>
        <time>2020-08-03T12:42:02Z</time>
      </trkpt>
      <trkpt lat="49.60752" lon="5.019">
        <ele>188.56</ele>
        <time>2020-08-03T12:42:20Z</time>
      </trkpt>
      <trkpt lat="49.60752" lon="5.01898">
        <ele>188.56</ele>
        <time>2020-08-03T12:42:21Z</time>
      </trkpt>
      <trkpt lat="49.60741" lon="5.01871">
        <ele>187.11</ele>
        <time>2020-08-03T12:42:38Z</time>
      </trkpt>
      <trkpt lat="49.60734" lon="5.01855">
        <ele>185.67</ele>
        <time>2020-08-03T12:42:49Z</time>
      </trkpt>
      <trkpt lat="49.60731" lon="5.01848">
        <ele>184.71</ele>
        <time>2020-08-03T12:42:56Z</time>
      </trkpt>
      <trkpt lat="49.60729" lon="5.01841">
        <ele>184.71</ele>
        <time>2020-08-03T12:43:00Z</time>
      </trkpt>
      <trkpt lat="49.60721" lon="5.01815">
        <ele>186.63</ele>
        <time>2020-08-03T12:43:17Z</time>
      </trkpt>
      <trkpt lat="49.60713" lon="5.01795">
        <ele>188.56</ele>
        <time>2020-08-03T12:43:31Z</time>
      </trkpt>
      <trkpt lat="49.60704" lon="5.01771">
        <ele>191.92</ele>
        <time>2020-08-03T12:43:47Z</time>
      </trkpt>
      <trkpt lat="49.60694" lon="5.01751">
        <ele>192.4</ele>
        <time>2020-08-03T12:44:02Z</time>
      </trkpt>
      <trkpt lat="49.6068" lon="5.01739">
        <ele>193.84</ele>
        <time>2020-08-03T12:44:15Z</time>
      </trkpt>
      <trkpt lat="49.60676" lon="5.01739">
        <ele>194.8</ele>
        <time>2020-08-03T12:44:20Z</time>
      </trkpt>
      <trkpt lat="49.60671" lon="5.01739">
        <ele>195.28</ele>
        <time>2020-08-03T12:44:32Z</time>
      </trkpt>
      <trkpt lat="49.60669" lon="5.0174">
        <ele>194.8</ele>
        <time>2020-08-03T12:44:34Z</time>
      </trkpt>
      <trkpt lat="49.60656" lon="5.01746">
        <ele>196.73</ele>
        <time>2020-08-03T12:44:47Z</time>
      </trkpt>
      <trkpt lat="49.60645" lon="5.0175">
        <ele>198.17</ele>
        <time>2020-08-03T12:44:59Z</time>
      </trkpt>
      <trkpt lat="49.60632" lon="5.01749">
        <ele>198.65</ele>
        <time>2020-08-03T12:45:10Z</time>
      </trkpt>
      <trkpt lat="49.60621" lon="5.01748">
        <ele>200.09</ele>
        <time>2020-08-03T12:45:22Z</time>
      </trkpt>
      <trkpt lat="49.60607" lon="5.01742">
        <ele>201.05</ele>
        <time>2020-08-03T12:45:35Z</time>
      </trkpt>
      <trkpt lat="49.60598" lon="5.01736">
        <ele>203.46</ele>
        <time>2020-08-03T12:45:47Z</time>
      </trkpt>
      <trkpt lat="49.60586" lon="5.01729">
        <ele>203.94</ele>
        <time>2020-08-03T12:46:00Z</time>
      </trkpt>
      <trkpt lat="49.60574" lon="5.01721">
        <ele>205.38</ele>
        <time>2020-08-03T12:46:13Z</time>
      </trkpt>
      <trkpt lat="49.60563" lon="5.01717">
        <ele>207.78</ele>
        <time>2020-08-03T12:46:25Z</time>
      </trkpt>
      <trkpt lat="49.60552" lon="5.01708">
        <ele>209.22</ele>
        <time>2020-08-03T12:46:39Z</time>
      </trkpt>
      <trkpt lat="49.60541" lon="5.017">
        <ele>211.15</ele>
        <time>2020-08-03T12:46:52Z</time>
      </trkpt>
      <trkpt lat="49.60527" lon="5.01693">
        <ele>212.11</ele>
        <time>2020-08-03T12:47:05Z</time>
      </trkpt>
      <trkpt lat="49.60514" lon="5.01686">
        <ele>212.11</ele>
        <time>2020-08-03T12:47:17Z</time>
      </trkpt>
      <trkpt lat="49.60503" lon="5.01678">
        <ele>212.11</ele>
        <time>2020-08-03T12:47:30Z</time>
      </trkpt>
      <trkpt lat="49.6049" lon="5.01671">
        <ele>212.59</ele>
        <time>2020-08-03T12:47:44Z</time>
      </trkpt>
      <trkpt lat="49.60479" lon="5.01664">
        <ele>214.51</ele>
        <time>2020-08-03T12:47:56Z</time>
      </trkpt>
      <trkpt lat="49.60468" lon="5.01655">
        <ele>217.4</ele>
        <time>2020-08-03T12:48:09Z</time>
      </trkpt>
      <trkpt lat="49.60458" lon="5.01647">
        <ele>219.8</ele>
        <time>2020-08-03T12:48:21Z</time>
      </trkpt>
      <trkpt lat="49.60447" lon="5.01636">
        <ele>221.72</ele>
        <time>2020-08-03T12:48:33Z</time>
      </trkpt>
      <trkpt lat="49.60437" lon="5.01625">
        <ele>222.68</ele>
        <time>2020-08-03T12:48:46Z</time>
      </trkpt>
      <trkpt lat="49.60429" lon="5.01615">
        <ele>222.68</ele>
        <time>2020-08-03T12:48:57Z</time>
      </trkpt>
      <trkpt lat="49.6042" lon="5.01602">
        <ele>224.12</ele>
        <time>2020-08-03T12:49:08Z</time>
      </trkpt>
      <trkpt lat="49.60412" lon="5.01593">
        <ele>225.57</ele>
        <time>2020-08-03T12:49:20Z</time>
      </trkpt>
      <trkpt lat="49.60402" lon="5.0158">
        <ele>227.01</ele>
        <time>2020-08-03T12:49:32Z</time>
      </trkpt>
      <trkpt lat="49.604" lon="5.01578">
        <ele>227.01</ele>
        <time>2020-08-03T12:49:35Z</time>
      </trkpt>
      <trkpt lat="49.60392" lon="5.0157">
        <ele>227.49</ele>
        <time>2020-08-03T12:49:47Z</time>
      </trkpt>
      <trkpt lat="49.60386" lon="5.01564">
        <ele>229.89</ele>
        <time>2020-08-03T12:50:06Z</time>
      </trkpt>
      <trkpt lat="49.60379" lon="5.01555">
        <ele>229.41</ele>
        <time>2020-08-03T12:50:16Z</time>
      </trkpt>
      <trkpt lat="49.6037" lon="5.01542">
        <ele>231.33</ele>
        <time>2020-08-03T12:50:28Z</time>
      </trkpt>
      <trkpt lat="49.60361" lon="5.0153">
        <ele>233.74</ele>
        <time>2020-08-03T12:50:40Z</time>
      </trkpt>
      <trkpt lat="49.60354" lon="5.01521">
        <ele>235.66</ele>
        <time>2020-08-03T12:50:50Z</time>
      </trkpt>
      <trkpt lat="49.60343" lon="5.01511">
        <ele>239.02</ele>
        <time>2020-08-03T12:51:04Z</time>
      </trkpt>
      <trkpt lat="49.60335" lon="5.015">
        <ele>242.39</ele>
        <time>2020-08-03T12:51:16Z</time>
      </trkpt>
      <trkpt lat="49.60328" lon="5.01487">
        <ele>245.27</ele>
        <time>2020-08-03T12:51:29Z</time>
      </trkpt>
      <trkpt lat="49.60326" lon="5.01483">
        <ele>246.23</ele>
        <time>2020-08-03T12:51:33Z</time>
      </trkpt>
      <trkpt lat="49.60322" lon="5.01474">
        <ele>249.12</ele>
        <time>2020-08-03T12:51:41Z</time>
      </trkpt>
      <trkpt lat="49.6032" lon="5.01455">
        <ele>257.29</ele>
        <time>2020-08-03T12:51:56Z</time>
      </trkpt>
      <trkpt lat="49.60317" lon="5.01443">
        <ele>261.62</ele>
        <time>2020-08-03T12:52:05Z</time>
      </trkpt>
      <trkpt lat="49.60317" lon="5.0144">
        <ele>262.58</ele>
        <time>2020-08-03T12:52:07Z</time>
      </trkpt>
      <trkpt lat="49.60314" lon="5.01434">
        <ele>264.98</ele>
        <time>2020-08-03T12:52:13Z</time>
      </trkpt>
      <trkpt lat="49.60306" lon="5.01418">
        <ele>269.79</ele>
        <time>2020-08-03T12:52:25Z</time>
      </trkpt>
      <trkpt lat="49.60304" lon="5.01413">
        <ele>269.79</ele>
        <time>2020-08-03T12:52:29Z</time>
      </trkpt>
      <trkpt lat="49.60298" lon="5.01396">
        <ele>274.59</ele>
        <time>2020-08-03T12:52:41Z</time>
      </trkpt>
      <trkpt lat="49.60293" lon="5.01381">
        <ele>280.84</ele>
        <time>2020-08-03T12:52:53Z</time>
      </trkpt>
      <trkpt lat="49.60288" lon="5.01363">
        <ele>282.77</ele>
        <time>2020-08-03T12:53:05Z</time>
      </trkpt>
      <trkpt lat="49.60283" lon="5.01345">
        <ele>279.88</ele>
        <time>2020-08-03T12:53:16Z</time>
      </trkpt>
      <trkpt lat="49.6028" lon="5.01326">
        <ele>276.52</ele>
        <time>2020-08-03T12:53:28Z</time>
      </trkpt>
      <trkpt lat="49.6028" lon="5.01321">
        <ele>275.07</ele>
        <time>2020-08-03T12:53:30Z</time>
      </trkpt>
      <trkpt lat="49.6028" lon="5.01295">
        <ele>267.38</ele>
        <time>2020-08-03T12:53:43Z</time>
      </trkpt>
      <trkpt lat="49.60281" lon="5.01272">
        <ele>262.1</ele>
        <time>2020-08-03T12:53:57Z</time>
      </trkpt>
      <trkpt lat="49.60281" lon="5.0125">
        <ele>264.5</ele>
        <time>2020-08-03T12:54:11Z</time>
      </trkpt>
      <trkpt lat="49.60282" lon="5.01225">
        <ele>263.54</ele>
        <time>2020-08-03T12:54:25Z</time>
      </trkpt>
      <trkpt lat="49.60284" lon="5.01204">
        <ele>262.58</ele>
        <time>2020-08-03T12:54:38Z</time>
      </trkpt>
      <trkpt lat="49.60285" lon="5.01182">
        <ele>262.58</ele>
        <time>2020-08-03T12:54:51Z</time>
      </trkpt>
      <trkpt lat="49.60284" lon="5.01159">
        <ele>263.06</ele>
        <time>2020-08-03T12:55:05Z</time>
      </trkpt>
      <trkpt lat="49.60278" lon="5.01132">
        <ele>261.14</ele>
        <time>2020-08-03T12:55:21Z</time>
      </trkpt>
      <trkpt lat="49.60273" lon="5.0111">
        <ele>259.69</ele>
        <time>2020-08-03T12:55:35Z</time>
      </trkpt>
      <trkpt lat="49.6027" lon="5.01099">
        <ele>260.65</ele>
        <time>2020-08-03T12:55:44Z</time>
      </trkpt>
      <trkpt lat="49.60264" lon="5.01074">
        <ele>258.73</ele>
        <time>2020-08-03T12:55:59Z</time>
      </trkpt>
      <trkpt lat="49.60262" lon="5.01069">
        <ele>258.73</ele>
        <time>2020-08-03T12:56:03Z</time>
      </trkpt>
      <trkpt lat="49.60254" lon="5.01048">
        <ele>260.65</ele>
        <time>2020-08-03T12:56:17Z</time>
      </trkpt>
      <trkpt lat="49.60248" lon="5.01028">
        <ele>260.17</ele>
        <time>2020-08-03T12:56:30Z</time>
      </trkpt>
      <trkpt lat="49.60242" lon="5.01006">
        <ele>258.73</ele>
        <time>2020-08-03T12:56:44Z</time>
      </trkpt>
      <trkpt lat="49.6024" lon="5.0099">
        <ele>258.73</ele>
        <time>2020-08-03T12:56:55Z</time>
      </trkpt>
      <trkpt lat="49.60236" lon="5.0097">
        <ele>259.21</ele>
        <time>2020-08-03T12:57:08Z</time>
      </trkpt>
      <trkpt lat="49.60233" lon="5.00951">
        <ele>266.9</ele>
        <time>2020-08-03T12:57:20Z</time>
      </trkpt>
      <trkpt lat="49.60229" lon="5.00935">
        <ele>265.46</ele>
        <time>2020-08-03T12:57:30Z</time>
      </trkpt>
      <trkpt lat="49.60226" lon="5.00923">
        <ele>265.46</ele>
        <time>2020-08-03T12:57:36Z</time>
      </trkpt>
      <trkpt lat="49.6022" lon="5.009">
        <ele>262.1</ele>
        <time>2020-08-03T12:57:50Z</time>
      </trkpt>
      <trkpt lat="49.60216" lon="5.00881">
        <ele>260.65</ele>
        <time>2020-08-03T12:58:02Z</time>
      </trkpt>
      <trkpt lat="49.60212" lon="5.00858">
        <ele>262.1</ele>
        <time>2020-08-03T12:58:16Z</time>
      </trkpt>
      <trkpt lat="49.60208" lon="5.00837">
        <ele>262.1</ele>
        <time>2020-08-03T12:58:30Z</time>
      </trkpt>
      <trkpt lat="49.60202" lon="5.00817">
        <ele>263.54</ele>
        <time>2020-08-03T12:58:43Z</time>
      </trkpt>
      <trkpt lat="49.60196" lon="5.00799">
        <ele>264.98</ele>
        <time>2020-08-03T12:58:55Z</time>
      </trkpt>
      <trkpt lat="49.60188" lon="5.00782">
        <ele>267.38</ele>
        <time>2020-08-03T12:59:09Z</time>
      </trkpt>
      <trkpt lat="49.60182" lon="5.00766">
        <ele>267.38</ele>
        <time>2020-08-03T12:59:22Z</time>
      </trkpt>
      <trkpt lat="49.60175" lon="5.00748">
        <ele>268.35</ele>
        <time>2020-08-03T12:59:33Z</time>
      </trkpt>
      <trkpt lat="49.60169" lon="5.00735">
        <ele>268.35</ele>
        <time>2020-08-03T12:59:44Z</time>
      </trkpt>
      <trkpt lat="49.60166" lon="5.00732">
        <ele>268.83</ele>
        <time>2020-08-03T12:59:59Z</time>
      </trkpt>
      <trkpt lat="49.60166" lon="5.00731">
        <ele>268.83</ele>
        <time>2020-08-03T13:00:01Z</time>
      </trkpt>
      <trkpt lat="49.60162" lon="5.00722">
        <ele>269.31</ele>
        <time>2020-08-03T13:00:13Z</time>
      </trkpt>
      <trkpt lat="49.60158" lon="5.00714">
        <ele>270.75</ele>
        <time>2020-08-03T13:00:29Z</time>
      </trkpt>
      <trkpt lat="49.60151" lon="5.00699">
        <ele>271.71</ele>
        <time>2020-08-03T13:00:42Z</time>
      </trkpt>
      <trkpt lat="49.60143" lon="5.00682">
        <ele>274.11</ele>
        <time>2020-08-03T13:00:54Z</time>
      </trkpt>
      <trkpt lat="49.60137" lon="5.00667">
        <ele>275.07</ele>
        <time>2020-08-03T13:01:06Z</time>
      </trkpt>
      <trkpt lat="49.60129" lon="5.00647">
        <ele>277.48</ele>
        <time>2020-08-03T13:01:19Z</time>
      </trkpt>
      <trkpt lat="49.60122" lon="5.00631">
        <ele>278.44</ele>
        <time>2020-08-03T13:01:32Z</time>
      </trkpt>
      <trkpt lat="49.60116" lon="5.00616">
        <ele>279.88</ele>
        <time>2020-08-03T13:01:43Z</time>
      </trkpt>
      <trkpt lat="49.60108" lon="5.00597">
        <ele>279.88</ele>
        <time>2020-08-03T13:01:56Z</time>
      </trkpt>
      <trkpt lat="49.60099" lon="5.00578">
        <ele>280.84</ele>
        <time>2020-08-03T13:02:09Z</time>
      </trkpt>
      <trkpt lat="49.60092" lon="5.00563">
        <ele>280.84</ele>
        <time>2020-08-03T13:02:22Z</time>
      </trkpt>
      <trkpt lat="49.60085" lon="5.00545">
        <ele>281.8</ele>
        <time>2020-08-03T13:02:35Z</time>
      </trkpt>
      <trkpt lat="49.60077" lon="5.00527">
        <ele>283.73</ele>
        <time>2020-08-03T13:02:48Z</time>
      </trkpt>
      <trkpt lat="49.60069" lon="5.00508">
        <ele>284.69</ele>
        <time>2020-08-03T13:03:01Z</time>
      </trkpt>
      <trkpt lat="49.60063" lon="5.00494">
        <ele>285.65</ele>
        <time>2020-08-03T13:03:13Z</time>
      </trkpt>
      <trkpt lat="49.60054" lon="5.00479">
        <ele>286.13</ele>
        <time>2020-08-03T13:03:27Z</time>
      </trkpt>
      <trkpt lat="49.60042" lon="5.00473">
        <ele>287.09</ele>
        <time>2020-08-03T13:03:39Z</time>
      </trkpt>
      <trkpt lat="49.60029" lon="5.00476">
        <ele>287.09</ele>
        <time>2020-08-03T13:03:51Z</time>
      </trkpt>
      <trkpt lat="49.60015" lon="5.00478">
        <ele>287.09</ele>
        <time>2020-08-03T13:04:04Z</time>
      </trkpt>
      <trkpt lat="49.60004" lon="5.00483">
        <ele>286.13</ele>
        <time>2020-08-03T13:04:18Z</time>
      </trkpt>
      <trkpt lat="49.60003" lon="5.00482">
        <ele>285.65</ele>
        <time>2020-08-03T13:04:20Z</time>
      </trkpt>
      <trkpt lat="49.59989" lon="5.00487">
        <ele>282.28</ele>
        <time>2020-08-03T13:04:33Z</time>
      </trkpt>
      <trkpt lat="49.59985" lon="5.00489">
        <ele>280.36</ele>
        <time>2020-08-03T13:04:39Z</time>
      </trkpt>
      <trkpt lat="49.59971" lon="5.00494">
        <ele>280.84</ele>
        <time>2020-08-03T13:04:52Z</time>
      </trkpt>
      <trkpt lat="49.59956" lon="5.00497">
        <ele>280.84</ele>
        <time>2020-08-03T13:05:07Z</time>
      </trkpt>
      <trkpt lat="49.5995" lon="5.00495">
        <ele>283.73</ele>
        <time>2020-08-03T13:05:18Z</time>
      </trkpt>
      <trkpt lat="49.59941" lon="5.00486">
        <ele>287.09</ele>
        <time>2020-08-03T13:05:32Z</time>
      </trkpt>
      <trkpt lat="49.59937" lon="5.0048">
        <ele>287.57</ele>
        <time>2020-08-03T13:05:39Z</time>
      </trkpt>
      <trkpt lat="49.59935" lon="5.00477">
        <ele>287.57</ele>
        <time>2020-08-03T13:05:53Z</time>
      </trkpt>
      <trkpt lat="49.59936" lon="5.00475">
        <ele>287.09</ele>
        <time>2020-08-03T13:06:20Z</time>
      </trkpt>
      <trkpt lat="49.59936" lon="5.00474">
        <ele>287.09</ele>
        <time>2020-08-03T13:06:50Z</time>
      </trkpt>
      <trkpt lat="49.59936" lon="5.00474">
        <ele>287.57</ele>
        <time>2020-08-03T13:07:13Z</time>
      </trkpt>
      <trkpt lat="49.59935" lon="5.00474">
        <ele>287.09</ele>
        <time>2020-08-03T13:07:39Z</time>
      </trkpt>
      <trkpt lat="49.59935" lon="5.00473">
        <ele>287.09</ele>
        <time>2020-08-03T13:08:04Z</time>
      </trkpt>
      <trkpt lat="49.59934" lon="5.00473">
        <ele>287.09</ele>
        <time>2020-08-03T13:08:20Z</time>
      </trkpt>
      <trkpt lat="49.59934" lon="5.00473">
        <ele>286.61</ele>
        <time>2020-08-03T13:08:54Z</time>
      </trkpt>
      <trkpt lat="49.59934" lon="5.00473">
        <ele>287.09</ele>
        <time>2020-08-03T13:09:17Z</time>
      </trkpt>
      <trkpt lat="49.59935" lon="5.00473">
        <ele>286.61</ele>
        <time>2020-08-03T13:09:47Z</time>
      </trkpt>
      <trkpt lat="49.59935" lon="5.00473">
        <ele>286.61</ele>
        <time>2020-08-03T13:10:08Z</time>
      </trkpt>
      <trkpt lat="49.59934" lon="5.00473">
        <ele>285.65</ele>
        <time>2020-08-03T13:10:32Z</time>
      </trkpt>
      <trkpt lat="49.59934" lon="5.00473">
        <ele>285.65</ele>
        <time>2020-08-03T13:10:54Z</time>
      </trkpt>
      <trkpt lat="49.59934" lon="5.00473">
        <ele>285.17</ele>
        <time>2020-08-03T13:11:21Z</time>
      </trkpt>
      <trkpt lat="49.59935" lon="5.00473">
        <ele>284.21</ele>
        <time>2020-08-03T13:11:48Z</time>
      </trkpt>
      <trkpt lat="49.59935" lon="5.00473">
        <ele>283.73</ele>
        <time>2020-08-03T13:12:09Z</time>
      </trkpt>
      <trkpt lat="49.59935" lon="5.00472">
        <ele>283.25</ele>
        <time>2020-08-03T13:12:39Z</time>
      </trkpt>
      <trkpt lat="49.59934" lon="5.00471">
        <ele>283.25</ele>
        <time>2020-08-03T13:13:12Z</time>
      </trkpt>
      <trkpt lat="49.59934" lon="5.00471">
        <ele>283.73</ele>
        <time>2020-08-03T13:13:27Z</time>
      </trkpt>
      <trkpt lat="49.59932" lon="5.00469">
        <ele>283.25</ele>
        <time>2020-08-03T13:13:39Z</time>
      </trkpt>
      <trkpt lat="49.59923" lon="5.00454">
        <ele>282.77</ele>
        <time>2020-08-03T13:13:53Z</time>
      </trkpt>
      <trkpt lat="49.59919" lon="5.00443">
        <ele>285.17</ele>
        <time>2020-08-03T13:14:02Z</time>
      </trkpt>
      <trkpt lat="49.59914" lon="5.00431">
        <ele>287.57</ele>
        <time>2020-08-03T13:14:12Z</time>
      </trkpt>
      <trkpt lat="49.59907" lon="5.00413">
        <ele>287.57</ele>
        <time>2020-08-03T13:14:27Z</time>
      </trkpt>
      <trkpt lat="49.59903" lon="5.00404">
        <ele>286.61</ele>
        <time>2020-08-03T13:14:33Z</time>
      </trkpt>
      <trkpt lat="49.59894" lon="5.00376">
        <ele>283.73</ele>
        <time>2020-08-03T13:14:50Z</time>
      </trkpt>
      <trkpt lat="49.59884" lon="5.00362">
        <ele>283.25</ele>
        <time>2020-08-03T13:15:02Z</time>
      </trkpt>
      <trkpt lat="49.59876" lon="5.00342">
        <ele>284.21</ele>
        <time>2020-08-03T13:15:16Z</time>
      </trkpt>
      <trkpt lat="49.59866" lon="5.00323">
        <ele>284.69</ele>
        <time>2020-08-03T13:15:30Z</time>
      </trkpt>
      <trkpt lat="49.59857" lon="5.00301">
        <ele>283.73</ele>
        <time>2020-08-03T13:15:44Z</time>
      </trkpt>
      <trkpt lat="49.59849" lon="5.00283">
        <ele>284.69</ele>
        <time>2020-08-03T13:15:57Z</time>
      </trkpt>
      <trkpt lat="49.59839" lon="5.00261">
        <ele>286.13</ele>
        <time>2020-08-03T13:16:12Z</time>
      </trkpt>
      <trkpt lat="49.59831" lon="5.00236">
        <ele>286.61</ele>
        <time>2020-08-03T13:16:28Z</time>
      </trkpt>
      <trkpt lat="49.59827" lon="5.00231">
        <ele>285.65</ele>
        <time>2020-08-03T13:16:34Z</time>
      </trkpt>
      <trkpt lat="49.59818" lon="5.0021">
        <ele>286.13</ele>
        <time>2020-08-03T13:16:49Z</time>
      </trkpt>
      <trkpt lat="49.59811" lon="5.00192">
        <ele>286.61</ele>
        <time>2020-08-03T13:17:02Z</time>
      </trkpt>
      <trkpt lat="49.59807" lon="5.0018">
        <ele>288.05</ele>
        <time>2020-08-03T13:17:09Z</time>
      </trkpt>
      <trkpt lat="49.59799" lon="5.00172">
        <ele>289.97</ele>
        <time>2020-08-03T13:17:19Z</time>
      </trkpt>
      <trkpt lat="49.59797" lon="5.00166">
        <ele>290.46</ele>
        <time>2020-08-03T13:17:22Z</time>
      </trkpt>
      <trkpt lat="49.59793" lon="5.00155">
        <ele>291.42</ele>
        <time>2020-08-03T13:17:28Z</time>
      </trkpt>
      <trkpt lat="49.59786" lon="5.00142">
        <ele>290.94</ele>
        <time>2020-08-03T13:17:39Z</time>
      </trkpt>
      <trkpt lat="49.59785" lon="5.00134">
        <ele>290.46</ele>
        <time>2020-08-03T13:17:43Z</time>
      </trkpt>
      <trkpt lat="49.59778" lon="5.00116">
        <ele>292.38</ele>
        <time>2020-08-03T13:17:58Z</time>
      </trkpt>
      <trkpt lat="49.59777" lon="5.00111">
        <ele>291.9</ele>
        <time>2020-08-03T13:18:02Z</time>
      </trkpt>
      <trkpt lat="49.59775" lon="5.001">
        <ele>292.38</ele>
        <time>2020-08-03T13:18:07Z</time>
      </trkpt>
      <trkpt lat="49.59772" lon="5.00088">
        <ele>292.38</ele>
        <time>2020-08-03T13:18:15Z</time>
      </trkpt>
      <trkpt lat="49.59764" lon="5.00063">
        <ele>289.97</ele>
        <time>2020-08-03T13:18:29Z</time>
      </trkpt>
      <trkpt lat="49.59761" lon="5.00047">
        <ele>289.49</ele>
        <time>2020-08-03T13:18:39Z</time>
      </trkpt>
      <trkpt lat="49.59759" lon="5.00029">
        <ele>289.01</ele>
        <time>2020-08-03T13:18:47Z</time>
      </trkpt>
      <trkpt lat="49.59753" lon="5.00011">
        <ele>287.57</ele>
        <time>2020-08-03T13:19:01Z</time>
      </trkpt>
      <trkpt lat="49.59752" lon="5.00004">
        <ele>288.05</ele>
        <time>2020-08-03T13:19:04Z</time>
      </trkpt>
      <trkpt lat="49.5975" lon="4.99993">
        <ele>289.49</ele>
        <time>2020-08-03T13:19:09Z</time>
      </trkpt>
      <trkpt lat="49.59747" lon="4.99988">
        <ele>290.46</ele>
        <time>2020-08-03T13:19:18Z</time>
      </trkpt>
      <trkpt lat="49.59742" lon="4.99966">
        <ele>291.42</ele>
        <time>2020-08-03T13:19:33Z</time>
      </trkpt>
      <trkpt lat="49.59742" lon="4.99965">
        <ele>291.42</ele>
        <time>2020-08-03T13:19:34Z</time>
      </trkpt>
      <trkpt lat="49.59739" lon="4.99954">
        <ele>291.42</ele>
        <time>2020-08-03T13:19:40Z</time>
      </trkpt>
      <trkpt lat="49.59737" lon="4.99947">
        <ele>291.42</ele>
        <time>2020-08-03T13:19:43Z</time>
      </trkpt>
      <trkpt lat="49.59728" lon="4.99932">
        <ele>291.9</ele>
        <time>2020-08-03T13:19:57Z</time>
      </trkpt>
      <trkpt lat="49.59725" lon="4.99921">
        <ele>290.94</ele>
        <time>2020-08-03T13:20:02Z</time>
      </trkpt>
      <trkpt lat="49.59719" lon="4.999">
        <ele>288.53</ele>
        <time>2020-08-03T13:20:16Z</time>
      </trkpt>
      <trkpt lat="49.59718" lon="4.99893">
        <ele>288.05</ele>
        <time>2020-08-03T13:20:20Z</time>
      </trkpt>
      <trkpt lat="49.59712" lon="4.99871">
        <ele>286.61</ele>
        <time>2020-08-03T13:20:35Z</time>
      </trkpt>
      <trkpt lat="49.59708" lon="4.9986">
        <ele>285.65</ele>
        <time>2020-08-03T13:20:40Z</time>
      </trkpt>
      <trkpt lat="49.59703" lon="4.99846">
        <ele>284.21</ele>
        <time>2020-08-03T13:20:52Z</time>
      </trkpt>
      <trkpt lat="49.59702" lon="4.99843">
        <ele>284.21</ele>
        <time>2020-08-03T13:20:54Z</time>
      </trkpt>
      <trkpt lat="49.5969" lon="4.99817">
        <ele>283.73</ele>
        <time>2020-08-03T13:21:08Z</time>
      </trkpt>
      <trkpt lat="49.5969" lon="4.99811">
        <ele>284.21</ele>
        <time>2020-08-03T13:21:16Z</time>
      </trkpt>
      <trkpt lat="49.59687" lon="4.99806">
        <ele>284.21</ele>
        <time>2020-08-03T13:21:22Z</time>
      </trkpt>
      <trkpt lat="49.59678" lon="4.99782">
        <ele>283.73</ele>
        <time>2020-08-03T13:21:39Z</time>
      </trkpt>
      <trkpt lat="49.59671" lon="4.9977">
        <ele>287.09</ele>
        <time>2020-08-03T13:21:54Z</time>
      </trkpt>
      <trkpt lat="49.59667" lon="4.99759">
        <ele>286.13</ele>
        <time>2020-08-03T13:22:00Z</time>
      </trkpt>
      <trkpt lat="49.59658" lon="4.99734">
        <ele>286.13</ele>
        <time>2020-08-03T13:22:12Z</time>
      </trkpt>
      <trkpt lat="49.59654" lon="4.99721">
        <ele>284.69</ele>
        <time>2020-08-03T13:22:24Z</time>
      </trkpt>
      <trkpt lat="49.59652" lon="4.99714">
        <ele>284.69</ele>
        <time>2020-08-03T13:22:28Z</time>
      </trkpt>
      <trkpt lat="49.59646" lon="4.99693">
        <ele>282.77</ele>
        <time>2020-08-03T13:22:41Z</time>
      </trkpt>
      <trkpt lat="49.59644" lon="4.99685">
        <ele>282.28</ele>
        <time>2020-08-03T13:22:47Z</time>
      </trkpt>
      <trkpt lat="49.59639" lon="4.99665">
        <ele>281.32</ele>
        <time>2020-08-03T13:22:59Z</time>
      </trkpt>
      <trkpt lat="49.59637" lon="4.99647">
        <ele>280.84</ele>
        <time>2020-08-03T13:23:06Z</time>
      </trkpt>
      <trkpt lat="49.59632" lon="4.99636">
        <ele>280.36</ele>
        <time>2020-08-03T13:23:17Z</time>
      </trkpt>
      <trkpt lat="49.59629" lon="4.99628">
        <ele>280.36</ele>
        <time>2020-08-03T13:23:21Z</time>
      </trkpt>
      <trkpt lat="49.59626" lon="4.99608">
        <ele>280.36</ele>
        <time>2020-08-03T13:23:35Z</time>
      </trkpt>
      <trkpt lat="49.59625" lon="4.996">
        <ele>280.36</ele>
        <time>2020-08-03T13:23:40Z</time>
      </trkpt>
      <trkpt lat="49.59618" lon="4.99589">
        <ele>282.28</ele>
        <time>2020-08-03T13:23:51Z</time>
      </trkpt>
      <trkpt lat="49.59617" lon="4.99586">
        <ele>282.77</ele>
        <time>2020-08-03T13:23:53Z</time>
      </trkpt>
      <trkpt lat="49.59608" lon="4.99567">
        <ele>284.21</ele>
        <time>2020-08-03T13:24:07Z</time>
      </trkpt>
      <trkpt lat="49.59597" lon="4.99544">
        <ele>285.65</ele>
        <time>2020-08-03T13:24:21Z</time>
      </trkpt>
      <trkpt lat="49.59595" lon="4.99541">
        <ele>286.13</ele>
        <time>2020-08-03T13:24:25Z</time>
      </trkpt>
      <trkpt lat="49.59591" lon="4.99533">
        <ele>287.09</ele>
        <time>2020-08-03T13:24:30Z</time>
      </trkpt>
      <trkpt lat="49.59587" lon="4.99525">
        <ele>287.57</ele>
        <time>2020-08-03T13:24:34Z</time>
      </trkpt>
      <trkpt lat="49.59578" lon="4.99507">
        <ele>288.53</ele>
        <time>2020-08-03T13:24:50Z</time>
      </trkpt>
      <trkpt lat="49.59573" lon="4.99491">
        <ele>289.01</ele>
        <time>2020-08-03T13:24:58Z</time>
      </trkpt>
      <trkpt lat="49.59564" lon="4.99473">
        <ele>289.97</ele>
        <time>2020-08-03T13:25:12Z</time>
      </trkpt>
      <trkpt lat="49.59556" lon="4.99461">
        <ele>295.74</ele>
        <time>2020-08-03T13:25:23Z</time>
      </trkpt>
      <trkpt lat="49.59551" lon="4.99453">
        <ele>299.11</ele>
        <time>2020-08-03T13:25:31Z</time>
      </trkpt>
      <trkpt lat="49.59545" lon="4.99434">
        <ele>298.63</ele>
        <time>2020-08-03T13:25:43Z</time>
      </trkpt>
      <trkpt lat="49.59545" lon="4.99427">
        <ele>298.15</ele>
        <time>2020-08-03T13:25:49Z</time>
      </trkpt>
      <trkpt lat="49.59544" lon="4.99423">
        <ele>298.15</ele>
        <time>2020-08-03T13:25:52Z</time>
      </trkpt>
      <trkpt lat="49.5954" lon="4.99412">
        <ele>297.67</ele>
        <time>2020-08-03T13:25:58Z</time>
      </trkpt>
      <trkpt lat="49.59538" lon="4.99404">
        <ele>298.15</ele>
        <time>2020-08-03T13:26:01Z</time>
      </trkpt>
      <trkpt lat="49.59526" lon="4.99389">
        <ele>298.63</ele>
        <time>2020-08-03T13:26:16Z</time>
      </trkpt>
      <trkpt lat="49.59517" lon="4.99376">
        <ele>301.51</ele>
        <time>2020-08-03T13:26:28Z</time>
      </trkpt>
      <trkpt lat="49.59507" lon="4.99354">
        <ele>306.32</ele>
        <time>2020-08-03T13:26:41Z</time>
      </trkpt>
      <trkpt lat="49.59501" lon="4.99332">
        <ele>304.88</ele>
        <time>2020-08-03T13:26:56Z</time>
      </trkpt>
      <trkpt lat="49.595" lon="4.99326">
        <ele>303.91</ele>
        <time>2020-08-03T13:26:59Z</time>
      </trkpt>
      <trkpt lat="49.59497" lon="4.99312">
        <ele>302.47</ele>
        <time>2020-08-03T13:27:11Z</time>
      </trkpt>
      <trkpt lat="49.59498" lon="4.99311">
        <ele>302.47</ele>
        <time>2020-08-03T13:27:14Z</time>
      </trkpt>
      <trkpt lat="49.59503" lon="4.99307">
        <ele>302.47</ele>
        <time>2020-08-03T13:27:18Z</time>
      </trkpt>
      <trkpt lat="49.59514" lon="4.99297">
        <ele>305.36</ele>
        <time>2020-08-03T13:27:33Z</time>
      </trkpt>
      <trkpt lat="49.59529" lon="4.99278">
        <ele>306.8</ele>
        <time>2020-08-03T13:27:50Z</time>
      </trkpt>
      <trkpt lat="49.59543" lon="4.99264">
        <ele>309.2</ele>
        <time>2020-08-03T13:28:06Z</time>
      </trkpt>
      <trkpt lat="49.59562" lon="4.99247">
        <ele>312.57</ele>
        <time>2020-08-03T13:28:25Z</time>
      </trkpt>
      <trkpt lat="49.59575" lon="4.99234">
        <ele>314.49</ele>
        <time>2020-08-03T13:28:42Z</time>
      </trkpt>
      <trkpt lat="49.59579" lon="4.99229">
        <ele>314.49</ele>
        <time>2020-08-03T13:28:45Z</time>
      </trkpt>
      <trkpt lat="49.59592" lon="4.99219">
        <ele>316.89</ele>
        <time>2020-08-03T13:28:59Z</time>
      </trkpt>
      <trkpt lat="49.59607" lon="4.99206">
        <ele>317.85</ele>
        <time>2020-08-03T13:29:14Z</time>
      </trkpt>
      <trkpt lat="49.59619" lon="4.99198">
        <ele>317.37</ele>
        <time>2020-08-03T13:29:29Z</time>
      </trkpt>
      <trkpt lat="49.59627" lon="4.99193">
        <ele>318.81</ele>
        <time>2020-08-03T13:29:37Z</time>
      </trkpt>
      <trkpt lat="49.5964" lon="4.99188">
        <ele>318.81</ele>
        <time>2020-08-03T13:29:50Z</time>
      </trkpt>
      <trkpt lat="49.59654" lon="4.99182">
        <ele>318.81</ele>
        <time>2020-08-03T13:30:04Z</time>
      </trkpt>
      <trkpt lat="49.59666" lon="4.99171">
        <ele>320.26</ele>
        <time>2020-08-03T13:30:20Z</time>
      </trkpt>
      <trkpt lat="49.59676" lon="4.99166">
        <ele>319.78</ele>
        <time>2020-08-03T13:30:33Z</time>
      </trkpt>
      <trkpt lat="49.5969" lon="4.99154">
        <ele>318.33</ele>
        <time>2020-08-03T13:30:48Z</time>
      </trkpt>
      <trkpt lat="49.59694" lon="4.99153">
        <ele>318.33</ele>
        <time>2020-08-03T13:30:52Z</time>
      </trkpt>
      <trkpt lat="49.59696" lon="4.99153">
        <ele>318.81</ele>
        <time>2020-08-03T13:30:54Z</time>
      </trkpt>
      <trkpt lat="49.59706" lon="4.99147">
        <ele>318.81</ele>
        <time>2020-08-03T13:31:08Z</time>
      </trkpt>
      <trkpt lat="49.59723" lon="4.99136">
        <ele>319.3</ele>
        <time>2020-08-03T13:31:25Z</time>
      </trkpt>
      <trkpt lat="49.59728" lon="4.99133">
        <ele>319.3</ele>
        <time>2020-08-03T13:31:30Z</time>
      </trkpt>
      <trkpt lat="49.59743" lon="4.99124">
        <ele>319.78</ele>
        <time>2020-08-03T13:31:46Z</time>
      </trkpt>
      <trkpt lat="49.59756" lon="4.9912">
        <ele>319.78</ele>
        <time>2020-08-03T13:31:59Z</time>
      </trkpt>
      <trkpt lat="49.59767" lon="4.99113">
        <ele>320.74</ele>
        <time>2020-08-03T13:32:14Z</time>
      </trkpt>
      <trkpt lat="49.59782" lon="4.99099">
        <ele>323.14</ele>
        <time>2020-08-03T13:32:28Z</time>
      </trkpt>
      <trkpt lat="49.598" lon="4.99086">
        <ele>323.62</ele>
        <time>2020-08-03T13:32:42Z</time>
      </trkpt>
      <trkpt lat="49.59813" lon="4.99074">
        <ele>324.58</ele>
        <time>2020-08-03T13:32:58Z</time>
      </trkpt>
      <trkpt lat="49.59817" lon="4.99069">
        <ele>324.58</ele>
        <time>2020-08-03T13:33:03Z</time>
      </trkpt>
      <trkpt lat="49.59835" lon="4.99048">
        <ele>324.1</ele>
        <time>2020-08-03T13:33:19Z</time>
      </trkpt>
      <trkpt lat="49.59854" lon="4.99033">
        <ele>324.58</ele>
        <time>2020-08-03T13:33:36Z</time>
      </trkpt>
      <trkpt lat="49.59867" lon="4.99022">
        <ele>326.99</ele>
        <time>2020-08-03T13:33:50Z</time>
      </trkpt>
      <trkpt lat="49.59868" lon="4.99021">
        <ele>326.99</ele>
        <time>2020-08-03T13:33:51Z</time>
      </trkpt>
      <trkpt lat="49.59881" lon="4.99008">
        <ele>326.5</ele>
        <time>2020-08-03T13:34:05Z</time>
      </trkpt>
      <trkpt lat="49.59883" lon="4.99006">
        <ele>326.02</ele>
        <time>2020-08-03T13:34:07Z</time>
      </trkpt>
      <trkpt lat="49.59886" lon="4.99">
        <ele>325.54</ele>
        <time>2020-08-03T13:34:10Z</time>
      </trkpt>
      <trkpt lat="49.59894" lon="4.9899">
        <ele>323.62</ele>
        <time>2020-08-03T13:34:25Z</time>
      </trkpt>
      <trkpt lat="49.59906" lon="4.98976">
        <ele>323.14</ele>
        <time>2020-08-03T13:34:38Z</time>
      </trkpt>
      <trkpt lat="49.59916" lon="4.9896">
        <ele>318.33</ele>
        <time>2020-08-03T13:34:51Z</time>
      </trkpt>
      <trkpt lat="49.59926" lon="4.98946">
        <ele>314.01</ele>
        <time>2020-08-03T13:35:06Z</time>
      </trkpt>
      <trkpt lat="49.59935" lon="4.98932">
        <ele>311.12</ele>
        <time>2020-08-03T13:35:20Z</time>
      </trkpt>
      <trkpt lat="49.59947" lon="4.98912">
        <ele>308.24</ele>
        <time>2020-08-03T13:35:39Z</time>
      </trkpt>
      <trkpt lat="49.59948" lon="4.98912">
        <ele>307.76</ele>
        <time>2020-08-03T13:35:40Z</time>
      </trkpt>
      <trkpt lat="49.59959" lon="4.98889">
        <ele>308.24</ele>
        <time>2020-08-03T13:35:57Z</time>
      </trkpt>
      <trkpt lat="49.59968" lon="4.98873">
        <ele>311.12</ele>
        <time>2020-08-03T13:36:12Z</time>
      </trkpt>
      <trkpt lat="49.59978" lon="4.98853">
        <ele>314.01</ele>
        <time>2020-08-03T13:36:26Z</time>
      </trkpt>
      <trkpt lat="49.59988" lon="4.98831">
        <ele>313.05</ele>
        <time>2020-08-03T13:36:39Z</time>
      </trkpt>
      <trkpt lat="49.59998" lon="4.98812">
        <ele>312.09</ele>
        <time>2020-08-03T13:36:53Z</time>
      </trkpt>
      <trkpt lat="49.60009" lon="4.98788">
        <ele>311.6</ele>
        <time>2020-08-03T13:37:09Z</time>
      </trkpt>
      <trkpt lat="49.60021" lon="4.98766">
        <ele>313.53</ele>
        <time>2020-08-03T13:37:25Z</time>
      </trkpt>
      <trkpt lat="49.60025" lon="4.98752">
        <ele>314.49</ele>
        <time>2020-08-03T13:37:41Z</time>
      </trkpt>
      <trkpt lat="49.60029" lon="4.98739">
        <ele>314.01</ele>
        <time>2020-08-03T13:38:00Z</time>
      </trkpt>
      <trkpt lat="49.60033" lon="4.98729">
        <ele>314.97</ele>
        <time>2020-08-03T13:38:06Z</time>
      </trkpt>
      <trkpt lat="49.60042" lon="4.98694">
        <ele>314.01</ele>
        <time>2020-08-03T13:38:22Z</time>
      </trkpt>
      <trkpt lat="49.60049" lon="4.98671">
        <ele>314.01</ele>
        <time>2020-08-03T13:38:34Z</time>
      </trkpt>
      <trkpt lat="49.60057" lon="4.98638">
        <ele>312.57</ele>
        <time>2020-08-03T13:38:49Z</time>
      </trkpt>
      <trkpt lat="49.60065" lon="4.98624">
        <ele>310.64</ele>
        <time>2020-08-03T13:38:56Z</time>
      </trkpt>
      <trkpt lat="49.60076" lon="4.98616">
        <ele>312.57</ele>
        <time>2020-08-03T13:39:10Z</time>
      </trkpt>
      <trkpt lat="49.60081" lon="4.98617">
        <ele>311.12</ele>
        <time>2020-08-03T13:39:16Z</time>
      </trkpt>
      <trkpt lat="49.60097" lon="4.9863">
        <ele>312.09</ele>
        <time>2020-08-03T13:39:31Z</time>
      </trkpt>
      <trkpt lat="49.60107" lon="4.98646">
        <ele>311.6</ele>
        <time>2020-08-03T13:39:47Z</time>
      </trkpt>
      <trkpt lat="49.60112" lon="4.98654">
        <ele>312.09</ele>
        <time>2020-08-03T13:39:53Z</time>
      </trkpt>
      <trkpt lat="49.60121" lon="4.98667">
        <ele>312.09</ele>
        <time>2020-08-03T13:40:06Z</time>
      </trkpt>
      <trkpt lat="49.60131" lon="4.9868">
        <ele>308.24</ele>
        <time>2020-08-03T13:40:19Z</time>
      </trkpt>
      <trkpt lat="49.60141" lon="4.98694">
        <ele>303.91</ele>
        <time>2020-08-03T13:40:34Z</time>
      </trkpt>
      <trkpt lat="49.60154" lon="4.98713">
        <ele>298.63</ele>
        <time>2020-08-03T13:40:50Z</time>
      </trkpt>
      <trkpt lat="49.60164" lon="4.98725">
        <ele>294.78</ele>
        <time>2020-08-03T13:41:06Z</time>
      </trkpt>
      <trkpt lat="49.60168" lon="4.98729">
        <ele>294.3</ele>
        <time>2020-08-03T13:41:10Z</time>
      </trkpt>
      <trkpt lat="49.60172" lon="4.98732">
        <ele>293.82</ele>
        <time>2020-08-03T13:41:14Z</time>
      </trkpt>
      <trkpt lat="49.60183" lon="4.98744">
        <ele>293.34</ele>
        <time>2020-08-03T13:41:28Z</time>
      </trkpt>
      <trkpt lat="49.60194" lon="4.98752">
        <ele>293.34</ele>
        <time>2020-08-03T13:41:41Z</time>
      </trkpt>
      <trkpt lat="49.60208" lon="4.98752">
        <ele>298.15</ele>
        <time>2020-08-03T13:41:54Z</time>
      </trkpt>
      <trkpt lat="49.60211" lon="4.98751">
        <ele>298.63</ele>
        <time>2020-08-03T13:41:56Z</time>
      </trkpt>
      <trkpt lat="49.60222" lon="4.98751">
        <ele>301.03</ele>
        <time>2020-08-03T13:42:11Z</time>
      </trkpt>
      <trkpt lat="49.60227" lon="4.98753">
        <ele>301.51</ele>
        <time>2020-08-03T13:42:20Z</time>
      </trkpt>
      <trkpt lat="49.60234" lon="4.98755">
        <ele>301.99</ele>
        <time>2020-08-03T13:42:24Z</time>
      </trkpt>
      <trkpt lat="49.6025" lon="4.98764">
        <ele>301.51</ele>
        <time>2020-08-03T13:42:40Z</time>
      </trkpt>
      <trkpt lat="49.60252" lon="4.98765">
        <ele>301.51</ele>
        <time>2020-08-03T13:42:42Z</time>
      </trkpt>
      <trkpt lat="49.60268" lon="4.98775">
        <ele>299.11</ele>
        <time>2020-08-03T13:42:58Z</time>
      </trkpt>
      <trkpt lat="49.60283" lon="4.98783">
        <ele>298.15</ele>
        <time>2020-08-03T13:43:14Z</time>
      </trkpt>
      <trkpt lat="49.60294" lon="4.98784">
        <ele>300.55</ele>
        <time>2020-08-03T13:43:25Z</time>
      </trkpt>
      <trkpt lat="49.60302" lon="4.98789">
        <ele>302.47</ele>
        <time>2020-08-03T13:43:39Z</time>
      </trkpt>
      <trkpt lat="49.60318" lon="4.98796">
        <ele>301.99</ele>
        <time>2020-08-03T13:43:55Z</time>
      </trkpt>
      <trkpt lat="49.6032" lon="4.98797">
        <ele>302.47</ele>
        <time>2020-08-03T13:43:57Z</time>
      </trkpt>
      <trkpt lat="49.60331" lon="4.98804">
        <ele>303.43</ele>
        <time>2020-08-03T13:44:12Z</time>
      </trkpt>
      <trkpt lat="49.60346" lon="4.98814">
        <ele>300.07</ele>
        <time>2020-08-03T13:44:26Z</time>
      </trkpt>
      <trkpt lat="49.6036" lon="4.98819">
        <ele>300.55</ele>
        <time>2020-08-03T13:44:40Z</time>
      </trkpt>
      <trkpt lat="49.6037" lon="4.98823">
        <ele>302.95</ele>
        <time>2020-08-03T13:44:50Z</time>
      </trkpt>
      <trkpt lat="49.60386" lon="4.98827">
        <ele>302.95</ele>
        <time>2020-08-03T13:45:02Z</time>
      </trkpt>
      <trkpt lat="49.60392" lon="4.9883">
        <ele>302.95</ele>
        <time>2020-08-03T13:45:07Z</time>
      </trkpt>
      <trkpt lat="49.6041" lon="4.98838">
        <ele>304.39</ele>
        <time>2020-08-03T13:45:23Z</time>
      </trkpt>
      <trkpt lat="49.60422" lon="4.98845">
        <ele>307.76</ele>
        <time>2020-08-03T13:45:37Z</time>
      </trkpt>
      <trkpt lat="49.60434" lon="4.9885">
        <ele>310.16</ele>
        <time>2020-08-03T13:45:50Z</time>
      </trkpt>
      <trkpt lat="49.60438" lon="4.98852">
        <ele>311.12</ele>
        <time>2020-08-03T13:45:54Z</time>
      </trkpt>
      <trkpt lat="49.60452" lon="4.98861">
        <ele>311.6</ele>
        <time>2020-08-03T13:46:08Z</time>
      </trkpt>
      <trkpt lat="49.60467" lon="4.98871">
        <ele>312.09</ele>
        <time>2020-08-03T13:46:22Z</time>
      </trkpt>
      <trkpt lat="49.60481" lon="4.98878">
        <ele>313.53</ele>
        <time>2020-08-03T13:46:35Z</time>
      </trkpt>
      <trkpt lat="49.60496" lon="4.98886">
        <ele>315.45</ele>
        <time>2020-08-03T13:46:48Z</time>
      </trkpt>
      <trkpt lat="49.60511" lon="4.98894">
        <ele>314.97</ele>
        <time>2020-08-03T13:47:03Z</time>
      </trkpt>
      <trkpt lat="49.60524" lon="4.98895">
        <ele>315.45</ele>
        <time>2020-08-03T13:47:15Z</time>
      </trkpt>
      <trkpt lat="49.60535" lon="4.98901">
        <ele>314.97</ele>
        <time>2020-08-03T13:47:25Z</time>
      </trkpt>
      <trkpt lat="49.60548" lon="4.98909">
        <ele>313.05</ele>
        <time>2020-08-03T13:47:39Z</time>
      </trkpt>
      <trkpt lat="49.60562" lon="4.98913">
        <ele>311.12</ele>
        <time>2020-08-03T13:47:51Z</time>
      </trkpt>
      <trkpt lat="49.6058" lon="4.98918">
        <ele>308.72</ele>
        <time>2020-08-03T13:48:07Z</time>
      </trkpt>
      <trkpt lat="49.60583" lon="4.98919">
        <ele>308.24</ele>
        <time>2020-08-03T13:48:09Z</time>
      </trkpt>
      <trkpt lat="49.60596" lon="4.98921">
        <ele>305.36</ele>
        <time>2020-08-03T13:48:22Z</time>
      </trkpt>
      <trkpt lat="49.60608" lon="4.98923">
        <ele>304.39</ele>
        <time>2020-08-03T13:48:36Z</time>
      </trkpt>
      <trkpt lat="49.60621" lon="4.9892">
        <ele>304.88</ele>
        <time>2020-08-03T13:48:51Z</time>
      </trkpt>
      <trkpt lat="49.60623" lon="4.98919">
        <ele>305.36</ele>
        <time>2020-08-03T13:48:53Z</time>
      </trkpt>
      <trkpt lat="49.60636" lon="4.98898">
        <ele>301.03</ele>
        <time>2020-08-03T13:49:09Z</time>
      </trkpt>
      <trkpt lat="49.60648" lon="4.98877">
        <ele>296.22</ele>
        <time>2020-08-03T13:49:24Z</time>
      </trkpt>
      <trkpt lat="49.60655" lon="4.98861">
        <ele>294.3</ele>
        <time>2020-08-03T13:49:41Z</time>
      </trkpt>
      <trkpt lat="49.60661" lon="4.98848">
        <ele>294.3</ele>
        <time>2020-08-03T13:49:53Z</time>
      </trkpt>
      <trkpt lat="49.60663" lon="4.98844">
        <ele>294.78</ele>
        <time>2020-08-03T13:49:55Z</time>
      </trkpt>
      <trkpt lat="49.60672" lon="4.98825">
        <ele>295.74</ele>
        <time>2020-08-03T13:50:09Z</time>
      </trkpt>
      <trkpt lat="49.60678" lon="4.98812">
        <ele>298.63</ele>
        <time>2020-08-03T13:50:20Z</time>
      </trkpt>
      <trkpt lat="49.6069" lon="4.9879">
        <ele>301.03</ele>
        <time>2020-08-03T13:50:34Z</time>
      </trkpt>
      <trkpt lat="49.60702" lon="4.98769">
        <ele>303.43</ele>
        <time>2020-08-03T13:50:51Z</time>
      </trkpt>
      <trkpt lat="49.60711" lon="4.98748">
        <ele>301.99</ele>
        <time>2020-08-03T13:51:05Z</time>
      </trkpt>
      <trkpt lat="49.60719" lon="4.98724">
        <ele>300.07</ele>
        <time>2020-08-03T13:51:19Z</time>
      </trkpt>
      <trkpt lat="49.60723" lon="4.98715">
        <ele>301.99</ele>
        <time>2020-08-03T13:51:35Z</time>
      </trkpt>
      <trkpt lat="49.60732" lon="4.98698">
        <ele>305.36</ele>
        <time>2020-08-03T13:51:47Z</time>
      </trkpt>
      <trkpt lat="49.60743" lon="4.9867">
        <ele>306.32</ele>
        <time>2020-08-03T13:52:05Z</time>
      </trkpt>
      <trkpt lat="49.60747" lon="4.98662">
        <ele>305.84</ele>
        <time>2020-08-03T13:52:09Z</time>
      </trkpt>
      <trkpt lat="49.60759" lon="4.98647">
        <ele>302.95</ele>
        <time>2020-08-03T13:52:27Z</time>
      </trkpt>
      <trkpt lat="49.60769" lon="4.98627">
        <ele>301.03</ele>
        <time>2020-08-03T13:52:40Z</time>
      </trkpt>
      <trkpt lat="49.60773" lon="4.98622">
        <ele>301.03</ele>
        <time>2020-08-03T13:52:44Z</time>
      </trkpt>
      <trkpt lat="49.6078" lon="4.98606">
        <ele>301.03</ele>
        <time>2020-08-03T13:53:00Z</time>
      </trkpt>
      <trkpt lat="49.6079" lon="4.98588">
        <ele>302.95</ele>
        <time>2020-08-03T13:53:17Z</time>
      </trkpt>
      <trkpt lat="49.6079" lon="4.98587">
        <ele>302.95</ele>
        <time>2020-08-03T13:53:18Z</time>
      </trkpt>
      <trkpt lat="49.60801" lon="4.98565">
        <ele>304.39</ele>
        <time>2020-08-03T13:53:33Z</time>
      </trkpt>
      <trkpt lat="49.60808" lon="4.9855">
        <ele>306.8</ele>
        <time>2020-08-03T13:53:47Z</time>
      </trkpt>
      <trkpt lat="49.60817" lon="4.98533">
        <ele>308.72</ele>
        <time>2020-08-03T13:54:02Z</time>
      </trkpt>
      <trkpt lat="49.60828" lon="4.9851">
        <ele>308.72</ele>
        <time>2020-08-03T13:54:17Z</time>
      </trkpt>
      <trkpt lat="49.60834" lon="4.98495">
        <ele>307.28</ele>
        <time>2020-08-03T13:54:30Z</time>
      </trkpt>
      <trkpt lat="49.60842" lon="4.98476">
        <ele>306.32</ele>
        <time>2020-08-03T13:54:45Z</time>
      </trkpt>
      <trkpt lat="49.60846" lon="4.98464">
        <ele>307.76</ele>
        <time>2020-08-03T13:55:01Z</time>
      </trkpt>
      <trkpt lat="49.60847" lon="4.98464">
        <ele>308.24</ele>
        <time>2020-08-03T13:55:02Z</time>
      </trkpt>
      <trkpt lat="49.60856" lon="4.98443">
        <ele>310.16</ele>
        <time>2020-08-03T13:55:16Z</time>
      </trkpt>
      <trkpt lat="49.60867" lon="4.98406">
        <ele>307.76</ele>
        <time>2020-08-03T13:55:27Z</time>
      </trkpt>
      <trkpt lat="49.60881" lon="4.98379">
        <ele>305.36</ele>
        <time>2020-08-03T13:55:44Z</time>
      </trkpt>
      <trkpt lat="49.60883" lon="4.98368">
        <ele>305.36</ele>
        <time>2020-08-03T13:55:59Z</time>
      </trkpt>
      <trkpt lat="49.60889" lon="4.98349">
        <ele>303.43</ele>
        <time>2020-08-03T13:56:14Z</time>
      </trkpt>
      <trkpt lat="49.60899" lon="4.98324">
        <ele>302.95</ele>
        <time>2020-08-03T13:56:28Z</time>
      </trkpt>
      <trkpt lat="49.60907" lon="4.98303">
        <ele>304.39</ele>
        <time>2020-08-03T13:56:42Z</time>
      </trkpt>
      <trkpt lat="49.60915" lon="4.98283">
        <ele>303.91</ele>
        <time>2020-08-03T13:56:57Z</time>
      </trkpt>
      <trkpt lat="49.60916" lon="4.98282">
        <ele>303.91</ele>
        <time>2020-08-03T13:56:58Z</time>
      </trkpt>
      <trkpt lat="49.60925" lon="4.98255">
        <ele>304.88</ele>
        <time>2020-08-03T13:57:15Z</time>
      </trkpt>
      <trkpt lat="49.60929" lon="4.98235">
        <ele>301.99</ele>
        <time>2020-08-03T13:57:31Z</time>
      </trkpt>
      <trkpt lat="49.60937" lon="4.9822">
        <ele>302.47</ele>
        <time>2020-08-03T13:57:44Z</time>
      </trkpt>
      <trkpt lat="49.60947" lon="4.98201">
        <ele>303.43</ele>
        <time>2020-08-03T13:57:59Z</time>
      </trkpt>
      <trkpt lat="49.60959" lon="4.98183">
        <ele>304.88</ele>
        <time>2020-08-03T13:58:15Z</time>
      </trkpt>
      <trkpt lat="49.60968" lon="4.98167">
        <ele>304.88</ele>
        <time>2020-08-03T13:58:30Z</time>
      </trkpt>
      <trkpt lat="49.60978" lon="4.98148">
        <ele>308.24</ele>
        <time>2020-08-03T13:58:45Z</time>
      </trkpt>
      <trkpt lat="49.60988" lon="4.98127">
        <ele>310.64</ele>
        <time>2020-08-03T13:59:02Z</time>
      </trkpt>
      <trkpt lat="49.61002" lon="4.98111">
        <ele>309.68</ele>
        <time>2020-08-03T13:59:19Z</time>
      </trkpt>
      <trkpt lat="49.61003" lon="4.98109">
        <ele>309.68</ele>
        <time>2020-08-03T13:59:20Z</time>
      </trkpt>
      <trkpt lat="49.61014" lon="4.98088">
        <ele>307.76</ele>
        <time>2020-08-03T13:59:32Z</time>
      </trkpt>
      <trkpt lat="49.61021" lon="4.9808">
        <ele>311.6</ele>
        <time>2020-08-03T13:59:46Z</time>
      </trkpt>
      <trkpt lat="49.61024" lon="4.98076">
        <ele>313.05</ele>
        <time>2020-08-03T13:59:52Z</time>
      </trkpt>
      <trkpt lat="49.61036" lon="4.98055">
        <ele>311.6</ele>
        <time>2020-08-03T14:00:07Z</time>
      </trkpt>
      <trkpt lat="49.61047" lon="4.98039">
        <ele>311.6</ele>
        <time>2020-08-03T14:00:19Z</time>
      </trkpt>
      <trkpt lat="49.61053" lon="4.98022">
        <ele>312.57</ele>
        <time>2020-08-03T14:00:34Z</time>
      </trkpt>
      <trkpt lat="49.6106" lon="4.98017">
        <ele>311.6</ele>
        <time>2020-08-03T14:00:50Z</time>
      </trkpt>
      <trkpt lat="49.61072" lon="4.97999">
        <ele>309.68</ele>
        <time>2020-08-03T14:01:06Z</time>
      </trkpt>
      <trkpt lat="49.61082" lon="4.97981">
        <ele>309.2</ele>
        <time>2020-08-03T14:01:19Z</time>
      </trkpt>
      <trkpt lat="49.61091" lon="4.9797">
        <ele>312.09</ele>
        <time>2020-08-03T14:01:28Z</time>
      </trkpt>
      <trkpt lat="49.61101" lon="4.97957">
        <ele>311.12</ele>
        <time>2020-08-03T14:01:43Z</time>
      </trkpt>
      <trkpt lat="49.61116" lon="4.97935">
        <ele>309.2</ele>
        <time>2020-08-03T14:01:56Z</time>
      </trkpt>
      <trkpt lat="49.61128" lon="4.97912">
        <ele>304.88</ele>
        <time>2020-08-03T14:02:12Z</time>
      </trkpt>
      <trkpt lat="49.61133" lon="4.979">
        <ele>302.47</ele>
        <time>2020-08-03T14:02:24Z</time>
      </trkpt>
      <trkpt lat="49.61143" lon="4.97889">
        <ele>303.43</ele>
        <time>2020-08-03T14:02:38Z</time>
      </trkpt>
      <trkpt lat="49.61149" lon="4.97879">
        <ele>304.39</ele>
        <time>2020-08-03T14:02:50Z</time>
      </trkpt>
      <trkpt lat="49.6116" lon="4.97863">
        <ele>303.43</ele>
        <time>2020-08-03T14:03:05Z</time>
      </trkpt>
      <trkpt lat="49.61173" lon="4.97853">
        <ele>304.39</ele>
        <time>2020-08-03T14:03:21Z</time>
      </trkpt>
      <trkpt lat="49.61186" lon="4.97839">
        <ele>301.99</ele>
        <time>2020-08-03T14:03:35Z</time>
      </trkpt>
      <trkpt lat="49.61204" lon="4.97812">
        <ele>294.78</ele>
        <time>2020-08-03T14:03:49Z</time>
      </trkpt>
      <trkpt lat="49.61211" lon="4.97802">
        <ele>293.82</ele>
        <time>2020-08-03T14:04:01Z</time>
      </trkpt>
      <trkpt lat="49.61216" lon="4.97794">
        <ele>293.34</ele>
        <time>2020-08-03T14:04:13Z</time>
      </trkpt>
      <trkpt lat="49.61221" lon="4.97787">
        <ele>292.38</ele>
        <time>2020-08-03T14:04:25Z</time>
      </trkpt>
      <trkpt lat="49.61224" lon="4.97785">
        <ele>287.57</ele>
        <time>2020-08-03T14:04:46Z</time>
      </trkpt>
      <trkpt lat="49.61225" lon="4.97783">
        <ele>290.94</ele>
        <time>2020-08-03T14:05:09Z</time>
      </trkpt>
      <trkpt lat="49.61224" lon="4.97782">
        <ele>290.46</ele>
        <time>2020-08-03T14:05:31Z</time>
      </trkpt>
      <trkpt lat="49.61225" lon="4.97781">
        <ele>289.97</ele>
        <time>2020-08-03T14:05:50Z</time>
      </trkpt>
      <trkpt lat="49.61225" lon="4.97782">
        <ele>290.46</ele>
        <time>2020-08-03T14:06:09Z</time>
      </trkpt>
      <trkpt lat="49.61225" lon="4.97781">
        <ele>290.94</ele>
        <time>2020-08-03T14:06:37Z</time>
      </trkpt>
      <trkpt lat="49.61225" lon="4.97783">
        <ele>291.42</ele>
        <time>2020-08-03T14:07:03Z</time>
      </trkpt>
      <trkpt lat="49.61224" lon="4.97782">
        <ele>291.42</ele>
        <time>2020-08-03T14:07:38Z</time>
      </trkpt>
      <trkpt lat="49.61224" lon="4.97782">
        <ele>291.42</ele>
        <time>2020-08-03T14:08:05Z</time>
      </trkpt>
      <trkpt lat="49.61223" lon="4.97781">
        <ele>291.42</ele>
        <time>2020-08-03T14:08:37Z</time>
      </trkpt>
      <trkpt lat="49.61223" lon="4.9778">
        <ele>290.94</ele>
        <time>2020-08-03T14:09:07Z</time>
      </trkpt>
      <trkpt lat="49.61222" lon="4.97779">
        <ele>291.42</ele>
        <time>2020-08-03T14:09:42Z</time>
      </trkpt>
      <trkpt lat="49.61221" lon="4.97779">
        <ele>291.9</ele>
        <time>2020-08-03T14:10:13Z</time>
      </trkpt>
      <trkpt lat="49.61221" lon="4.97779">
        <ele>291.9</ele>
        <time>2020-08-03T14:10:42Z</time>
      </trkpt>
      <trkpt lat="49.6122" lon="4.97779">
        <ele>292.38</ele>
        <time>2020-08-03T14:11:19Z</time>
      </trkpt>
      <trkpt lat="49.61219" lon="4.97778">
        <ele>292.86</ele>
        <time>2020-08-03T14:11:59Z</time>
      </trkpt>
      <trkpt lat="49.61219" lon="4.97777">
        <ele>292.86</ele>
        <time>2020-08-03T14:12:31Z</time>
      </trkpt>
      <trkpt lat="49.61219" lon="4.97777">
        <ele>293.34</ele>
        <time>2020-08-03T14:13:08Z</time>
      </trkpt>
      <trkpt lat="49.61218" lon="4.97777">
        <ele>293.34</ele>
        <time>2020-08-03T14:13:35Z</time>
      </trkpt>
      <trkpt lat="49.61218" lon="4.97777">
        <ele>294.3</ele>
        <time>2020-08-03T14:14:15Z</time>
      </trkpt>
      <trkpt lat="49.61218" lon="4.97776">
        <ele>293.82</ele>
        <time>2020-08-03T14:14:49Z</time>
      </trkpt>
      <trkpt lat="49.61218" lon="4.97776">
        <ele>294.3</ele>
        <time>2020-08-03T14:15:24Z</time>
      </trkpt>
      <trkpt lat="49.61218" lon="4.97776">
        <ele>294.78</ele>
        <time>2020-08-03T14:15:54Z</time>
      </trkpt>
      <trkpt lat="49.61218" lon="4.97776">
        <ele>294.78</ele>
        <time>2020-08-03T14:16:29Z</time>
      </trkpt>
      <trkpt lat="49.61221" lon="4.97776">
        <ele>292.86</ele>
        <time>2020-08-03T14:16:56Z</time>
      </trkpt>
      <trkpt lat="49.61222" lon="4.97777">
        <ele>291.9</ele>
        <time>2020-08-03T14:17:18Z</time>
      </trkpt>
      <trkpt lat="49.61223" lon="4.97777">
        <ele>291.9</ele>
        <time>2020-08-03T14:17:35Z</time>
      </trkpt>
      <trkpt lat="49.61225" lon="4.97779">
        <ele>291.9</ele>
        <time>2020-08-03T14:17:51Z</time>
      </trkpt>
      <trkpt lat="49.61226" lon="4.97779">
        <ele>291.9</ele>
        <time>2020-08-03T14:17:54Z</time>
      </trkpt>
      <trkpt lat="49.6123" lon="4.97779">
        <ele>291.9</ele>
        <time>2020-08-03T14:18:07Z</time>
      </trkpt>
      <trkpt lat="49.61231" lon="4.97778">
        <ele>291.9</ele>
        <time>2020-08-03T14:18:27Z</time>
      </trkpt>
      <trkpt lat="49.61232" lon="4.97778">
        <ele>292.38</ele>
        <time>2020-08-03T14:18:46Z</time>
      </trkpt>
      <trkpt lat="49.61232" lon="4.97778">
        <ele>292.86</ele>
        <time>2020-08-03T14:19:12Z</time>
      </trkpt>
      <trkpt lat="49.61232" lon="4.97779">
        <ele>293.34</ele>
        <time>2020-08-03T14:19:43Z</time>
      </trkpt>
      <trkpt lat="49.61236" lon="4.97778">
        <ele>293.34</ele>
        <time>2020-08-03T14:20:01Z</time>
      </trkpt>
      <trkpt lat="49.61251" lon="4.97776">
        <ele>294.78</ele>
        <time>2020-08-03T14:20:15Z</time>
      </trkpt>
      <trkpt lat="49.61264" lon="4.97766">
        <ele>296.7</ele>
        <time>2020-08-03T14:20:32Z</time>
      </trkpt>
      <trkpt lat="49.61275" lon="4.97755">
        <ele>296.22</ele>
        <time>2020-08-03T14:20:46Z</time>
      </trkpt>
      <trkpt lat="49.61284" lon="4.97749">
        <ele>295.74</ele>
        <time>2020-08-03T14:20:58Z</time>
      </trkpt>
      <trkpt lat="49.61293" lon="4.97741">
        <ele>293.82</ele>
        <time>2020-08-03T14:21:11Z</time>
      </trkpt>
      <trkpt lat="49.61301" lon="4.9773">
        <ele>291.42</ele>
        <time>2020-08-03T14:21:24Z</time>
      </trkpt>
      <trkpt lat="49.61308" lon="4.97721">
        <ele>289.01</ele>
        <time>2020-08-03T14:21:37Z</time>
      </trkpt>
      <trkpt lat="49.61324" lon="4.97716">
        <ele>285.65</ele>
        <time>2020-08-03T14:21:51Z</time>
      </trkpt>
      <trkpt lat="49.61333" lon="4.97708">
        <ele>282.28</ele>
        <time>2020-08-03T14:22:05Z</time>
      </trkpt>
      <trkpt lat="49.61342" lon="4.97697">
        <ele>282.77</ele>
        <time>2020-08-03T14:22:18Z</time>
      </trkpt>
      <trkpt lat="49.61354" lon="4.97688">
        <ele>281.8</ele>
        <time>2020-08-03T14:22:31Z</time>
      </trkpt>
      <trkpt lat="49.61368" lon="4.9768">
        <ele>280.84</ele>
        <time>2020-08-03T14:22:46Z</time>
      </trkpt>
      <trkpt lat="49.61377" lon="4.97673">
        <ele>278.92</ele>
        <time>2020-08-03T14:22:57Z</time>
      </trkpt>
      <trkpt lat="49.61389" lon="4.97663">
        <ele>277.96</ele>
        <time>2020-08-03T14:23:12Z</time>
      </trkpt>
      <trkpt lat="49.61399" lon="4.97651">
        <ele>274.59</ele>
        <time>2020-08-03T14:23:25Z</time>
      </trkpt>
      <trkpt lat="49.61408" lon="4.97638">
        <ele>272.67</ele>
        <time>2020-08-03T14:23:38Z</time>
      </trkpt>
      <trkpt lat="49.61417" lon="4.97624">
        <ele>270.27</ele>
        <time>2020-08-03T14:23:50Z</time>
      </trkpt>
      <trkpt lat="49.61429" lon="4.9761">
        <ele>268.83</ele>
        <time>2020-08-03T14:24:05Z</time>
      </trkpt>
      <trkpt lat="49.61439" lon="4.97597">
        <ele>267.38</ele>
        <time>2020-08-03T14:24:19Z</time>
      </trkpt>
      <trkpt lat="49.61444" lon="4.97589">
        <ele>266.9</ele>
        <time>2020-08-03T14:24:27Z</time>
      </trkpt>
      <trkpt lat="49.61449" lon="4.97584">
        <ele>266.9</ele>
        <time>2020-08-03T14:24:31Z</time>
      </trkpt>
      <trkpt lat="49.61458" lon="4.9757">
        <ele>264.98</ele>
        <time>2020-08-03T14:24:45Z</time>
      </trkpt>
      <trkpt lat="49.6147" lon="4.97556">
        <ele>263.06</ele>
        <time>2020-08-03T14:24:58Z</time>
      </trkpt>
      <trkpt lat="49.61482" lon="4.97542">
        <ele>262.1</ele>
        <time>2020-08-03T14:25:12Z</time>
      </trkpt>
      <trkpt lat="49.61493" lon="4.9753">
        <ele>261.14</ele>
        <time>2020-08-03T14:25:26Z</time>
      </trkpt>
      <trkpt lat="49.61504" lon="4.97516">
        <ele>260.65</ele>
        <time>2020-08-03T14:25:40Z</time>
      </trkpt>
      <trkpt lat="49.61514" lon="4.97502">
        <ele>260.17</ele>
        <time>2020-08-03T14:25:55Z</time>
      </trkpt>
      <trkpt lat="49.61524" lon="4.97485">
        <ele>258.73</ele>
        <time>2020-08-03T14:26:08Z</time>
      </trkpt>
      <trkpt lat="49.6153" lon="4.97479">
        <ele>258.25</ele>
        <time>2020-08-03T14:26:19Z</time>
      </trkpt>
      <trkpt lat="49.61544" lon="4.97458">
        <ele>259.21</ele>
        <time>2020-08-03T14:26:34Z</time>
      </trkpt>
      <trkpt lat="49.61554" lon="4.97441">
        <ele>257.77</ele>
        <time>2020-08-03T14:26:47Z</time>
      </trkpt>
      <trkpt lat="49.6156" lon="4.97428">
        <ele>254.89</ele>
        <time>2020-08-03T14:26:58Z</time>
      </trkpt>
      <trkpt lat="49.61572" lon="4.9741">
        <ele>254.41</ele>
        <time>2020-08-03T14:27:14Z</time>
      </trkpt>
      <trkpt lat="49.61584" lon="4.97391">
        <ele>254.41</ele>
        <time>2020-08-03T14:27:29Z</time>
      </trkpt>
      <trkpt lat="49.61587" lon="4.97389">
        <ele>253.93</ele>
        <time>2020-08-03T14:27:33Z</time>
      </trkpt>
      <trkpt lat="49.61599" lon="4.97371">
        <ele>253.44</ele>
        <time>2020-08-03T14:27:47Z</time>
      </trkpt>
      <trkpt lat="49.61605" lon="4.9736">
        <ele>253.44</ele>
        <time>2020-08-03T14:28:01Z</time>
      </trkpt>
      <trkpt lat="49.6161" lon="4.97353">
        <ele>253.44</ele>
        <time>2020-08-03T14:28:06Z</time>
      </trkpt>
      <trkpt lat="49.61621" lon="4.97338">
        <ele>253.44</ele>
        <time>2020-08-03T14:28:20Z</time>
      </trkpt>
      <trkpt lat="49.61622" lon="4.97337">
        <ele>253.44</ele>
        <time>2020-08-03T14:28:21Z</time>
      </trkpt>
      <trkpt lat="49.61633" lon="4.97323">
        <ele>253.93</ele>
        <time>2020-08-03T14:28:35Z</time>
      </trkpt>
      <trkpt lat="49.61643" lon="4.97309">
        <ele>253.44</ele>
        <time>2020-08-03T14:28:48Z</time>
      </trkpt>
      <trkpt lat="49.61656" lon="4.97292">
        <ele>253.93</ele>
        <time>2020-08-03T14:29:04Z</time>
      </trkpt>
      <trkpt lat="49.6167" lon="4.97274">
        <ele>253.44</ele>
        <time>2020-08-03T14:29:18Z</time>
      </trkpt>
      <trkpt lat="49.61683" lon="4.97255">
        <ele>252.48</ele>
        <time>2020-08-03T14:29:35Z</time>
      </trkpt>
      <trkpt lat="49.6169" lon="4.97238">
        <ele>251.04</ele>
        <time>2020-08-03T14:29:49Z</time>
      </trkpt>
      <trkpt lat="49.61699" lon="4.97222">
        <ele>251.52</ele>
        <time>2020-08-03T14:30:03Z</time>
      </trkpt>
      <trkpt lat="49.61707" lon="4.97205">
        <ele>251.52</ele>
        <time>2020-08-03T14:30:16Z</time>
      </trkpt>
      <trkpt lat="49.61713" lon="4.97196">
        <ele>251.52</ele>
        <time>2020-08-03T14:30:23Z</time>
      </trkpt>
      <trkpt lat="49.61725" lon="4.97187">
        <ele>251.04</ele>
        <time>2020-08-03T14:30:37Z</time>
      </trkpt>
      <trkpt lat="49.61738" lon="4.97171">
        <ele>251.52</ele>
        <time>2020-08-03T14:30:52Z</time>
      </trkpt>
      <trkpt lat="49.61747" lon="4.97158">
        <ele>250.56</ele>
        <time>2020-08-03T14:31:03Z</time>
      </trkpt>
      <trkpt lat="49.61753" lon="4.97157">
        <ele>250.56</ele>
        <time>2020-08-03T14:31:12Z</time>
      </trkpt>
      <trkpt lat="49.61758" lon="4.97181">
        <ele>248.64</ele>
        <time>2020-08-03T14:31:27Z</time>
      </trkpt>
      <trkpt lat="49.61764" lon="4.97205">
        <ele>249.12</ele>
        <time>2020-08-03T14:31:40Z</time>
      </trkpt>
      <trkpt lat="49.61769" lon="4.97224">
        <ele>249.12</ele>
        <time>2020-08-03T14:31:53Z</time>
      </trkpt>
      <trkpt lat="49.61775" lon="4.97244">
        <ele>250.56</ele>
        <time>2020-08-03T14:32:07Z</time>
      </trkpt>
      <trkpt lat="49.6178" lon="4.97263">
        <ele>253.44</ele>
        <time>2020-08-03T14:32:19Z</time>
      </trkpt>
      <trkpt lat="49.61785" lon="4.97286">
        <ele>255.37</ele>
        <time>2020-08-03T14:32:32Z</time>
      </trkpt>
      <trkpt lat="49.61793" lon="4.9731">
        <ele>257.77</ele>
        <time>2020-08-03T14:32:46Z</time>
      </trkpt>
      <trkpt lat="49.61798" lon="4.97324">
        <ele>258.25</ele>
        <time>2020-08-03T14:33:00Z</time>
      </trkpt>
      <trkpt lat="49.61802" lon="4.97345">
        <ele>260.17</ele>
        <time>2020-08-03T14:33:12Z</time>
      </trkpt>
      <trkpt lat="49.61803" lon="4.97347">
        <ele>260.17</ele>
        <time>2020-08-03T14:33:16Z</time>
      </trkpt>
      <trkpt lat="49.61808" lon="4.97368">
        <ele>260.17</ele>
        <time>2020-08-03T14:33:29Z</time>
      </trkpt>
      <trkpt lat="49.61813" lon="4.97388">
        <ele>261.14</ele>
        <time>2020-08-03T14:33:42Z</time>
      </trkpt>
      <trkpt lat="49.61818" lon="4.97406">
        <ele>263.06</ele>
        <time>2020-08-03T14:33:55Z</time>
      </trkpt>
      <trkpt lat="49.61822" lon="4.97416">
        <ele>263.06</ele>
        <time>2020-08-03T14:34:01Z</time>
      </trkpt>
      <trkpt lat="49.61835" lon="4.97428">
        <ele>262.58</ele>
        <time>2020-08-03T14:34:16Z</time>
      </trkpt>
      <trkpt lat="49.61846" lon="4.97443">
        <ele>264.02</ele>
        <time>2020-08-03T14:34:30Z</time>
      </trkpt>
      <trkpt lat="49.61857" lon="4.97457">
        <ele>265.46</ele>
        <time>2020-08-03T14:34:43Z</time>
      </trkpt>
      <trkpt lat="49.61869" lon="4.97473">
        <ele>266.9</ele>
        <time>2020-08-03T14:34:56Z</time>
      </trkpt>
      <trkpt lat="49.61878" lon="4.97485">
        <ele>268.83</ele>
        <time>2020-08-03T14:35:08Z</time>
      </trkpt>
      <trkpt lat="49.61887" lon="4.97496">
        <ele>270.27</ele>
        <time>2020-08-03T14:35:20Z</time>
      </trkpt>
      <trkpt lat="49.61901" lon="4.97503">
        <ele>272.19</ele>
        <time>2020-08-03T14:35:33Z</time>
      </trkpt>
      <trkpt lat="49.61916" lon="4.97504">
        <ele>274.11</ele>
        <time>2020-08-03T14:35:46Z</time>
      </trkpt>
      <trkpt lat="49.61931" lon="4.97505">
        <ele>275.07</ele>
        <time>2020-08-03T14:35:59Z</time>
      </trkpt>
      <trkpt lat="49.61945" lon="4.97503">
        <ele>275.56</ele>
        <time>2020-08-03T14:36:12Z</time>
      </trkpt>
      <trkpt lat="49.61953" lon="4.97503">
        <ele>276.04</ele>
        <time>2020-08-03T14:36:20Z</time>
      </trkpt>
      <trkpt lat="49.61958" lon="4.97503">
        <ele>276.52</ele>
        <time>2020-08-03T14:36:24Z</time>
      </trkpt>
      <trkpt lat="49.61975" lon="4.97504">
        <ele>278.44</ele>
        <time>2020-08-03T14:36:38Z</time>
      </trkpt>
      <trkpt lat="49.6199" lon="4.97503">
        <ele>277.96</ele>
        <time>2020-08-03T14:36:52Z</time>
      </trkpt>
      <trkpt lat="49.62005" lon="4.97504">
        <ele>277.96</ele>
        <time>2020-08-03T14:37:05Z</time>
      </trkpt>
      <trkpt lat="49.62009" lon="4.97503">
        <ele>277.48</ele>
        <time>2020-08-03T14:37:11Z</time>
      </trkpt>
      <trkpt lat="49.62015" lon="4.97506">
        <ele>277.48</ele>
        <time>2020-08-03T14:37:16Z</time>
      </trkpt>
      <trkpt lat="49.62029" lon="4.97506">
        <ele>277.48</ele>
        <time>2020-08-03T14:37:29Z</time>
      </trkpt>
      <trkpt lat="49.62035" lon="4.97514">
        <ele>278.44</ele>
        <time>2020-08-03T14:37:39Z</time>
      </trkpt>
      <trkpt lat="49.62034" lon="4.9754">
        <ele>278.92</ele>
        <time>2020-08-03T14:37:53Z</time>
      </trkpt>
      <trkpt lat="49.62032" lon="4.97563">
        <ele>279.88</ele>
        <time>2020-08-03T14:38:07Z</time>
      </trkpt>
      <trkpt lat="49.62031" lon="4.97585">
        <ele>280.84</ele>
        <time>2020-08-03T14:38:20Z</time>
      </trkpt>
      <trkpt lat="49.6203" lon="4.97607">
        <ele>281.8</ele>
        <time>2020-08-03T14:38:33Z</time>
      </trkpt>
      <trkpt lat="49.62028" lon="4.97633">
        <ele>283.25</ele>
        <time>2020-08-03T14:38:47Z</time>
      </trkpt>
      <trkpt lat="49.62025" lon="4.97658">
        <ele>284.69</ele>
        <time>2020-08-03T14:39:02Z</time>
      </trkpt>
      <trkpt lat="49.62021" lon="4.97685">
        <ele>285.65</ele>
        <time>2020-08-03T14:39:18Z</time>
      </trkpt>
      <trkpt lat="49.62016" lon="4.97712">
        <ele>285.65</ele>
        <time>2020-08-03T14:39:35Z</time>
      </trkpt>
      <trkpt lat="49.62011" lon="4.97739">
        <ele>286.13</ele>
        <time>2020-08-03T14:39:51Z</time>
      </trkpt>
      <trkpt lat="49.62007" lon="4.97764">
        <ele>285.17</ele>
        <time>2020-08-03T14:40:07Z</time>
      </trkpt>
      <trkpt lat="49.62001" lon="4.97791">
        <ele>285.65</ele>
        <time>2020-08-03T14:40:24Z</time>
      </trkpt>
      <trkpt lat="49.61997" lon="4.97818">
        <ele>285.17</ele>
        <time>2020-08-03T14:40:41Z</time>
      </trkpt>
      <trkpt lat="49.61991" lon="4.97842">
        <ele>284.69</ele>
        <time>2020-08-03T14:40:56Z</time>
      </trkpt>
      <trkpt lat="49.61984" lon="4.97866">
        <ele>283.73</ele>
        <time>2020-08-03T14:41:12Z</time>
      </trkpt>
      <trkpt lat="49.61975" lon="4.97887">
        <ele>282.28</ele>
        <time>2020-08-03T14:41:27Z</time>
      </trkpt>
      <trkpt lat="49.61965" lon="4.97905">
        <ele>281.32</ele>
        <time>2020-08-03T14:41:42Z</time>
      </trkpt>
      <trkpt lat="49.61954" lon="4.97924">
        <ele>281.8</ele>
        <time>2020-08-03T14:41:57Z</time>
      </trkpt>
      <trkpt lat="49.61942" lon="4.97941">
        <ele>281.8</ele>
        <time>2020-08-03T14:42:13Z</time>
      </trkpt>
      <trkpt lat="49.61931" lon="4.97955">
        <ele>282.77</ele>
        <time>2020-08-03T14:42:27Z</time>
      </trkpt>
      <trkpt lat="49.61919" lon="4.97972">
        <ele>284.21</ele>
        <time>2020-08-03T14:42:42Z</time>
      </trkpt>
      <trkpt lat="49.61909" lon="4.97989">
        <ele>285.17</ele>
        <time>2020-08-03T14:42:57Z</time>
      </trkpt>
      <trkpt lat="49.61899" lon="4.98005">
        <ele>287.09</ele>
        <time>2020-08-03T14:43:10Z</time>
      </trkpt>
      <trkpt lat="49.6189" lon="4.98022">
        <ele>288.53</ele>
        <time>2020-08-03T14:43:24Z</time>
      </trkpt>
      <trkpt lat="49.61881" lon="4.98039">
        <ele>291.42</ele>
        <time>2020-08-03T14:43:37Z</time>
      </trkpt>
      <trkpt lat="49.61873" lon="4.98055">
        <ele>293.82</ele>
        <time>2020-08-03T14:43:50Z</time>
      </trkpt>
      <trkpt lat="49.61872" lon="4.98057">
        <ele>293.82</ele>
        <time>2020-08-03T14:43:52Z</time>
      </trkpt>
      <trkpt lat="49.61865" lon="4.98071">
        <ele>298.15</ele>
        <time>2020-08-03T14:44:06Z</time>
      </trkpt>
      <trkpt lat="49.61861" lon="4.98082">
        <ele>299.11</ele>
        <time>2020-08-03T14:44:16Z</time>
      </trkpt>
      <trkpt lat="49.61852" lon="4.98103">
        <ele>299.59</ele>
        <time>2020-08-03T14:44:31Z</time>
      </trkpt>
      <trkpt lat="49.61843" lon="4.98122">
        <ele>301.99</ele>
        <time>2020-08-03T14:44:45Z</time>
      </trkpt>
      <trkpt lat="49.61834" lon="4.9814">
        <ele>303.43</ele>
        <time>2020-08-03T14:44:58Z</time>
      </trkpt>
      <trkpt lat="49.61828" lon="4.98162">
        <ele>301.99</ele>
        <time>2020-08-03T14:45:11Z</time>
      </trkpt>
      <trkpt lat="49.61827" lon="4.98171">
        <ele>302.47</ele>
        <time>2020-08-03T14:45:23Z</time>
      </trkpt>
      <trkpt lat="49.61828" lon="4.98172">
        <ele>302.47</ele>
        <time>2020-08-03T14:45:32Z</time>
      </trkpt>
      <trkpt lat="49.61834" lon="4.98175">
        <ele>300.55</ele>
        <time>2020-08-03T14:45:38Z</time>
      </trkpt>
      <trkpt lat="49.61842" lon="4.98174">
        <ele>296.7</ele>
        <time>2020-08-03T14:45:50Z</time>
      </trkpt>
      <trkpt lat="49.61857" lon="4.98167">
        <ele>297.67</ele>
        <time>2020-08-03T14:46:05Z</time>
      </trkpt>
      <trkpt lat="49.61872" lon="4.98162">
        <ele>297.67</ele>
        <time>2020-08-03T14:46:22Z</time>
      </trkpt>
      <trkpt lat="49.61884" lon="4.98159">
        <ele>299.59</ele>
        <time>2020-08-03T14:46:39Z</time>
      </trkpt>
      <trkpt lat="49.61895" lon="4.98159">
        <ele>300.07</ele>
        <time>2020-08-03T14:46:52Z</time>
      </trkpt>
      <trkpt lat="49.61901" lon="4.98161">
        <ele>301.51</ele>
        <time>2020-08-03T14:46:59Z</time>
      </trkpt>
      <trkpt lat="49.61914" lon="4.98165">
        <ele>301.51</ele>
        <time>2020-08-03T14:47:14Z</time>
      </trkpt>
      <trkpt lat="49.61919" lon="4.98166">
        <ele>301.51</ele>
        <time>2020-08-03T14:47:18Z</time>
      </trkpt>
      <trkpt lat="49.61936" lon="4.98176">
        <ele>299.11</ele>
        <time>2020-08-03T14:47:32Z</time>
      </trkpt>
      <trkpt lat="49.61948" lon="4.98179">
        <ele>298.63</ele>
        <time>2020-08-03T14:47:45Z</time>
      </trkpt>
      <trkpt lat="49.61964" lon="4.98178">
        <ele>296.22</ele>
        <time>2020-08-03T14:48:01Z</time>
      </trkpt>
      <trkpt lat="49.61977" lon="4.98182">
        <ele>293.34</ele>
        <time>2020-08-03T14:48:15Z</time>
      </trkpt>
      <trkpt lat="49.61996" lon="4.98192">
        <ele>287.57</ele>
        <time>2020-08-03T14:48:31Z</time>
      </trkpt>
      <trkpt lat="49.62011" lon="4.98198">
        <ele>285.65</ele>
        <time>2020-08-03T14:48:47Z</time>
      </trkpt>
      <trkpt lat="49.62026" lon="4.98208">
        <ele>284.69</ele>
        <time>2020-08-03T14:49:01Z</time>
      </trkpt>
      <trkpt lat="49.6204" lon="4.98212">
        <ele>283.25</ele>
        <time>2020-08-03T14:49:16Z</time>
      </trkpt>
      <trkpt lat="49.62053" lon="4.98216">
        <ele>282.28</ele>
        <time>2020-08-03T14:49:31Z</time>
      </trkpt>
      <trkpt lat="49.62067" lon="4.98225">
        <ele>280.36</ele>
        <time>2020-08-03T14:49:46Z</time>
      </trkpt>
      <trkpt lat="49.6208" lon="4.98235">
        <ele>278.92</ele>
        <time>2020-08-03T14:49:58Z</time>
      </trkpt>
      <trkpt lat="49.62091" lon="4.9824">
        <ele>277</ele>
        <time>2020-08-03T14:50:13Z</time>
      </trkpt>
      <trkpt lat="49.62097" lon="4.98244">
        <ele>276.04</ele>
        <time>2020-08-03T14:50:22Z</time>
      </trkpt>
      <trkpt lat="49.62101" lon="4.98247">
        <ele>275.56</ele>
        <time>2020-08-03T14:50:25Z</time>
      </trkpt>
      <trkpt lat="49.62112" lon="4.98255">
        <ele>273.63</ele>
        <time>2020-08-03T14:50:40Z</time>
      </trkpt>
      <trkpt lat="49.62118" lon="4.98262">
        <ele>273.15</ele>
        <time>2020-08-03T14:50:46Z</time>
      </trkpt>
      <trkpt lat="49.62131" lon="4.98276">
        <ele>274.59</ele>
        <time>2020-08-03T14:51:00Z</time>
      </trkpt>
      <trkpt lat="49.62136" lon="4.98281">
        <ele>275.07</ele>
        <time>2020-08-03T14:51:06Z</time>
      </trkpt>
      <trkpt lat="49.62148" lon="4.98285">
        <ele>275.07</ele>
        <time>2020-08-03T14:51:18Z</time>
      </trkpt>
      <trkpt lat="49.62164" lon="4.98294">
        <ele>274.59</ele>
        <time>2020-08-03T14:51:36Z</time>
      </trkpt>
      <trkpt lat="49.6217" lon="4.98294">
        <ele>275.07</ele>
        <time>2020-08-03T14:51:44Z</time>
      </trkpt>
      <trkpt lat="49.62179" lon="4.98299">
        <ele>276.52</ele>
        <time>2020-08-03T14:51:53Z</time>
      </trkpt>
      <trkpt lat="49.62189" lon="4.98302">
        <ele>278.92</ele>
        <time>2020-08-03T14:52:07Z</time>
      </trkpt>
      <trkpt lat="49.62201" lon="4.98305">
        <ele>281.32</ele>
        <time>2020-08-03T14:52:21Z</time>
      </trkpt>
      <trkpt lat="49.62214" lon="4.98308">
        <ele>280.84</ele>
        <time>2020-08-03T14:52:35Z</time>
      </trkpt>
      <trkpt lat="49.62231" lon="4.98317">
        <ele>277.96</ele>
        <time>2020-08-03T14:52:49Z</time>
      </trkpt>
      <trkpt lat="49.62251" lon="4.98332">
        <ele>273.15</ele>
        <time>2020-08-03T14:53:07Z</time>
      </trkpt>
      <trkpt lat="49.62262" lon="4.98343">
        <ele>272.19</ele>
        <time>2020-08-03T14:53:22Z</time>
      </trkpt>
      <trkpt lat="49.62265" lon="4.98348">
        <ele>272.19</ele>
        <time>2020-08-03T14:53:27Z</time>
      </trkpt>
      <trkpt lat="49.62267" lon="4.98351">
        <ele>272.19</ele>
        <time>2020-08-03T14:53:29Z</time>
      </trkpt>
      <trkpt lat="49.62275" lon="4.98365">
        <ele>270.75</ele>
        <time>2020-08-03T14:53:42Z</time>
      </trkpt>
      <trkpt lat="49.62286" lon="4.98385">
        <ele>268.83</ele>
        <time>2020-08-03T14:53:59Z</time>
      </trkpt>
      <trkpt lat="49.62292" lon="4.98394">
        <ele>268.35</ele>
        <time>2020-08-03T14:54:09Z</time>
      </trkpt>
      <trkpt lat="49.62295" lon="4.98402">
        <ele>267.86</ele>
        <time>2020-08-03T14:54:15Z</time>
      </trkpt>
      <trkpt lat="49.62297" lon="4.98405">
        <ele>267.38</ele>
        <time>2020-08-03T14:54:17Z</time>
      </trkpt>
      <trkpt lat="49.62307" lon="4.98418">
        <ele>267.38</ele>
        <time>2020-08-03T14:54:31Z</time>
      </trkpt>
      <trkpt lat="49.62321" lon="4.98436">
        <ele>265.46</ele>
        <time>2020-08-03T14:54:47Z</time>
      </trkpt>
      <trkpt lat="49.62332" lon="4.9844">
        <ele>264.5</ele>
        <time>2020-08-03T14:54:59Z</time>
      </trkpt>
      <trkpt lat="49.62351" lon="4.98451">
        <ele>262.1</ele>
        <time>2020-08-03T14:55:17Z</time>
      </trkpt>
      <trkpt lat="49.62354" lon="4.98454">
        <ele>261.14</ele>
        <time>2020-08-03T14:55:23Z</time>
      </trkpt>
      <trkpt lat="49.62361" lon="4.9846">
        <ele>261.14</ele>
        <time>2020-08-03T14:55:29Z</time>
      </trkpt>
      <trkpt lat="49.62365" lon="4.98461">
        <ele>261.14</ele>
        <time>2020-08-03T14:55:32Z</time>
      </trkpt>
      <trkpt lat="49.62372" lon="4.98464">
        <ele>260.17</ele>
        <time>2020-08-03T14:55:38Z</time>
      </trkpt>
      <trkpt lat="49.62381" lon="4.98469">
        <ele>259.69</ele>
        <time>2020-08-03T14:55:51Z</time>
      </trkpt>
      <trkpt lat="49.62385" lon="4.98472">
        <ele>260.17</ele>
        <time>2020-08-03T14:55:55Z</time>
      </trkpt>
      <trkpt lat="49.62397" lon="4.98479">
        <ele>260.65</ele>
        <time>2020-08-03T14:56:09Z</time>
      </trkpt>
      <trkpt lat="49.62398" lon="4.9848">
        <ele>260.65</ele>
        <time>2020-08-03T14:56:10Z</time>
      </trkpt>
      <trkpt lat="49.62406" lon="4.98483">
        <ele>260.17</ele>
        <time>2020-08-03T14:56:17Z</time>
      </trkpt>
      <trkpt lat="49.62412" lon="4.98489">
        <ele>259.21</ele>
        <time>2020-08-03T14:56:26Z</time>
      </trkpt>
      <trkpt lat="49.62431" lon="4.98504">
        <ele>258.25</ele>
        <time>2020-08-03T14:56:44Z</time>
      </trkpt>
      <trkpt lat="49.62442" lon="4.98515">
        <ele>258.25</ele>
        <time>2020-08-03T14:57:00Z</time>
      </trkpt>
      <trkpt lat="49.62462" lon="4.98528">
        <ele>258.25</ele>
        <time>2020-08-03T14:57:16Z</time>
      </trkpt>
      <trkpt lat="49.62481" lon="4.98541">
        <ele>258.73</ele>
        <time>2020-08-03T14:57:37Z</time>
      </trkpt>
      <trkpt lat="49.62494" lon="4.98552">
        <ele>259.21</ele>
        <time>2020-08-03T14:57:55Z</time>
      </trkpt>
      <trkpt lat="49.62516" lon="4.98564">
        <ele>259.21</ele>
        <time>2020-08-03T14:58:11Z</time>
      </trkpt>
      <trkpt lat="49.62529" lon="4.98565">
        <ele>259.69</ele>
        <time>2020-08-03T14:58:26Z</time>
      </trkpt>
      <trkpt lat="49.62547" lon="4.98562">
        <ele>257.77</ele>
        <time>2020-08-03T14:58:43Z</time>
      </trkpt>
      <trkpt lat="49.62553" lon="4.9857">
        <ele>257.77</ele>
        <time>2020-08-03T14:58:53Z</time>
      </trkpt>
      <trkpt lat="49.62555" lon="4.98586">
        <ele>260.17</ele>
        <time>2020-08-03T14:59:04Z</time>
      </trkpt>
      <trkpt lat="49.62568" lon="4.98582">
        <ele>260.65</ele>
        <time>2020-08-03T14:59:17Z</time>
      </trkpt>
      <trkpt lat="49.62579" lon="4.98573">
        <ele>260.17</ele>
        <time>2020-08-03T14:59:28Z</time>
      </trkpt>
      <trkpt lat="49.62581" lon="4.98569">
        <ele>259.69</ele>
        <time>2020-08-03T14:59:32Z</time>
      </trkpt>
      <trkpt lat="49.62585" lon="4.98566">
        <ele>258.73</ele>
        <time>2020-08-03T14:59:36Z</time>
      </trkpt>
      <trkpt lat="49.62598" lon="4.98555">
        <ele>258.73</ele>
        <time>2020-08-03T14:59:51Z</time>
      </trkpt>
      <trkpt lat="49.6261" lon="4.98548">
        <ele>260.17</ele>
        <time>2020-08-03T15:00:05Z</time>
      </trkpt>
      <trkpt lat="49.62624" lon="4.98536">
        <ele>261.14</ele>
        <time>2020-08-03T15:00:20Z</time>
      </trkpt>
      <trkpt lat="49.62637" lon="4.98526">
        <ele>261.62</ele>
        <time>2020-08-03T15:00:34Z</time>
      </trkpt>
      <trkpt lat="49.62648" lon="4.98515">
        <ele>261.62</ele>
        <time>2020-08-03T15:00:47Z</time>
      </trkpt>
      <trkpt lat="49.62662" lon="4.98505">
        <ele>262.1</ele>
        <time>2020-08-03T15:01:01Z</time>
      </trkpt>
      <trkpt lat="49.6267" lon="4.98499">
        <ele>262.58</ele>
        <time>2020-08-03T15:01:12Z</time>
      </trkpt>
      <trkpt lat="49.62686" lon="4.98488">
        <ele>261.14</ele>
        <time>2020-08-03T15:01:28Z</time>
      </trkpt>
      <trkpt lat="49.627" lon="4.98477">
        <ele>260.65</ele>
        <time>2020-08-03T15:01:43Z</time>
      </trkpt>
      <trkpt lat="49.62712" lon="4.98463">
        <ele>259.69</ele>
        <time>2020-08-03T15:01:56Z</time>
      </trkpt>
      <trkpt lat="49.62721" lon="4.98456">
        <ele>259.21</ele>
        <time>2020-08-03T15:02:09Z</time>
      </trkpt>
      <trkpt lat="49.62728" lon="4.98449">
        <ele>257.29</ele>
        <time>2020-08-03T15:02:21Z</time>
      </trkpt>
      <trkpt lat="49.6274" lon="4.98438">
        <ele>253.44</ele>
        <time>2020-08-03T15:02:36Z</time>
      </trkpt>
      <trkpt lat="49.62751" lon="4.98429">
        <ele>251.04</ele>
        <time>2020-08-03T15:02:51Z</time>
      </trkpt>
      <trkpt lat="49.62754" lon="4.98426">
        <ele>250.08</ele>
        <time>2020-08-03T15:02:56Z</time>
      </trkpt>
      <trkpt lat="49.62761" lon="4.98421">
        <ele>250.08</ele>
        <time>2020-08-03T15:03:02Z</time>
      </trkpt>
      <trkpt lat="49.62772" lon="4.98412">
        <ele>248.16</ele>
        <time>2020-08-03T15:03:16Z</time>
      </trkpt>
      <trkpt lat="49.6278" lon="4.98406">
        <ele>248.64</ele>
        <time>2020-08-03T15:03:28Z</time>
      </trkpt>
      <trkpt lat="49.62792" lon="4.984">
        <ele>250.08</ele>
        <time>2020-08-03T15:03:40Z</time>
      </trkpt>
      <trkpt lat="49.62801" lon="4.9839">
        <ele>248.64</ele>
        <time>2020-08-03T15:03:52Z</time>
      </trkpt>
      <trkpt lat="49.62811" lon="4.98381">
        <ele>246.72</ele>
        <time>2020-08-03T15:04:06Z</time>
      </trkpt>
      <trkpt lat="49.62824" lon="4.98372">
        <ele>244.79</ele>
        <time>2020-08-03T15:04:21Z</time>
      </trkpt>
      <trkpt lat="49.62824" lon="4.98371">
        <ele>245.27</ele>
        <time>2020-08-03T15:04:22Z</time>
      </trkpt>
      <trkpt lat="49.62838" lon="4.98361">
        <ele>239.99</ele>
        <time>2020-08-03T15:04:37Z</time>
      </trkpt>
      <trkpt lat="49.62848" lon="4.98355">
        <ele>236.62</ele>
        <time>2020-08-03T15:04:50Z</time>
      </trkpt>
      <trkpt lat="49.62856" lon="4.98349">
        <ele>234.7</ele>
        <time>2020-08-03T15:05:00Z</time>
      </trkpt>
      <trkpt lat="49.62871" lon="4.98343">
        <ele>234.7</ele>
        <time>2020-08-03T15:05:15Z</time>
      </trkpt>
      <trkpt lat="49.62886" lon="4.98338">
        <ele>238.06</ele>
        <time>2020-08-03T15:05:30Z</time>
      </trkpt>
      <trkpt lat="49.62894" lon="4.98336">
        <ele>239.51</ele>
        <time>2020-08-03T15:05:43Z</time>
      </trkpt>
      <trkpt lat="49.62902" lon="4.98335">
        <ele>239.02</ele>
        <time>2020-08-03T15:05:49Z</time>
      </trkpt>
      <trkpt lat="49.62916" lon="4.9833">
        <ele>236.62</ele>
        <time>2020-08-03T15:06:04Z</time>
      </trkpt>
      <trkpt lat="49.62929" lon="4.98325">
        <ele>236.62</ele>
        <time>2020-08-03T15:06:19Z</time>
      </trkpt>
      <trkpt lat="49.62935" lon="4.9832">
        <ele>239.02</ele>
        <time>2020-08-03T15:06:29Z</time>
      </trkpt>
      <trkpt lat="49.62939" lon="4.9832">
        <ele>239.02</ele>
        <time>2020-08-03T15:06:32Z</time>
      </trkpt>
      <trkpt lat="49.62941" lon="4.98318">
        <ele>239.02</ele>
        <time>2020-08-03T15:06:34Z</time>
      </trkpt>
      <trkpt lat="49.62953" lon="4.98315">
        <ele>237.58</ele>
        <time>2020-08-03T15:06:48Z</time>
      </trkpt>
      <trkpt lat="49.62969" lon="4.9832">
        <ele>234.7</ele>
        <time>2020-08-03T15:07:02Z</time>
      </trkpt>
      <trkpt lat="49.6297" lon="4.9832">
        <ele>234.7</ele>
        <time>2020-08-03T15:07:03Z</time>
      </trkpt>
      <trkpt lat="49.62983" lon="4.98322">
        <ele>231.81</ele>
        <time>2020-08-03T15:07:21Z</time>
      </trkpt>
      <trkpt lat="49.62991" lon="4.98323">
        <ele>231.33</ele>
        <time>2020-08-03T15:07:34Z</time>
      </trkpt>
      <trkpt lat="49.63007" lon="4.98324">
        <ele>229.41</ele>
        <time>2020-08-03T15:07:50Z</time>
      </trkpt>
      <trkpt lat="49.63021" lon="4.98324">
        <ele>230.37</ele>
        <time>2020-08-03T15:08:06Z</time>
      </trkpt>
      <trkpt lat="49.63028" lon="4.98322">
        <ele>229.41</ele>
        <time>2020-08-03T15:08:14Z</time>
      </trkpt>
      <trkpt lat="49.63039" lon="4.98324">
        <ele>229.41</ele>
        <time>2020-08-03T15:08:26Z</time>
      </trkpt>
      <trkpt lat="49.63042" lon="4.98325">
        <ele>228.93</ele>
        <time>2020-08-03T15:08:30Z</time>
      </trkpt>
      <trkpt lat="49.63047" lon="4.98326">
        <ele>228.45</ele>
        <time>2020-08-03T15:08:34Z</time>
      </trkpt>
      <trkpt lat="49.63058" lon="4.98328">
        <ele>225.57</ele>
        <time>2020-08-03T15:08:46Z</time>
      </trkpt>
      <trkpt lat="49.63073" lon="4.9833">
        <ele>222.68</ele>
        <time>2020-08-03T15:09:02Z</time>
      </trkpt>
      <trkpt lat="49.6308" lon="4.98331">
        <ele>223.16</ele>
        <time>2020-08-03T15:09:09Z</time>
      </trkpt>
      <trkpt lat="49.6309" lon="4.98334">
        <ele>226.05</ele>
        <time>2020-08-03T15:09:23Z</time>
      </trkpt>
      <trkpt lat="49.63103" lon="4.98336">
        <ele>226.53</ele>
        <time>2020-08-03T15:09:38Z</time>
      </trkpt>
      <trkpt lat="49.63117" lon="4.98337">
        <ele>228.45</ele>
        <time>2020-08-03T15:09:53Z</time>
      </trkpt>
      <trkpt lat="49.63136" lon="4.98334">
        <ele>228.45</ele>
        <time>2020-08-03T15:10:10Z</time>
      </trkpt>
      <trkpt lat="49.63153" lon="4.98333">
        <ele>225.09</ele>
        <time>2020-08-03T15:10:26Z</time>
      </trkpt>
      <trkpt lat="49.6317" lon="4.98337">
        <ele>219.8</ele>
        <time>2020-08-03T15:10:43Z</time>
      </trkpt>
      <trkpt lat="49.63185" lon="4.98338">
        <ele>216.91</ele>
        <time>2020-08-03T15:10:57Z</time>
      </trkpt>
      <trkpt lat="49.63197" lon="4.98339">
        <ele>215.95</ele>
        <time>2020-08-03T15:11:09Z</time>
      </trkpt>
      <trkpt lat="49.63202" lon="4.98339">
        <ele>217.88</ele>
        <time>2020-08-03T15:11:15Z</time>
      </trkpt>
      <trkpt lat="49.63219" lon="4.98339">
        <ele>217.88</ele>
        <time>2020-08-03T15:11:30Z</time>
      </trkpt>
      <trkpt lat="49.63236" lon="4.98343">
        <ele>216.43</ele>
        <time>2020-08-03T15:11:46Z</time>
      </trkpt>
      <trkpt lat="49.6325" lon="4.98345">
        <ele>215.95</ele>
        <time>2020-08-03T15:12:01Z</time>
      </trkpt>
      <trkpt lat="49.63268" lon="4.98347">
        <ele>215.47</ele>
        <time>2020-08-03T15:12:17Z</time>
      </trkpt>
      <trkpt lat="49.63283" lon="4.98344">
        <ele>216.43</ele>
        <time>2020-08-03T15:12:32Z</time>
      </trkpt>
      <trkpt lat="49.63297" lon="4.98343">
        <ele>216.43</ele>
        <time>2020-08-03T15:12:47Z</time>
      </trkpt>
      <trkpt lat="49.63311" lon="4.98348">
        <ele>213.55</ele>
        <time>2020-08-03T15:13:01Z</time>
      </trkpt>
      <trkpt lat="49.63323" lon="4.98349">
        <ele>212.59</ele>
        <time>2020-08-03T15:13:15Z</time>
      </trkpt>
      <trkpt lat="49.63336" lon="4.98348">
        <ele>212.11</ele>
        <time>2020-08-03T15:13:30Z</time>
      </trkpt>
      <trkpt lat="49.6335" lon="4.98345">
        <ele>209.22</ele>
        <time>2020-08-03T15:13:44Z</time>
      </trkpt>
      <trkpt lat="49.63362" lon="4.9834">
        <ele>204.42</ele>
        <time>2020-08-03T15:13:58Z</time>
      </trkpt>
      <trkpt lat="49.63367" lon="4.98336">
        <ele>202.49</ele>
        <time>2020-08-03T15:14:06Z</time>
      </trkpt>
      <trkpt lat="49.63374" lon="4.98332">
        <ele>201.05</ele>
        <time>2020-08-03T15:14:13Z</time>
      </trkpt>
      <trkpt lat="49.63387" lon="4.98323">
        <ele>198.17</ele>
        <time>2020-08-03T15:14:29Z</time>
      </trkpt>
      <trkpt lat="49.63396" lon="4.98315">
        <ele>196.73</ele>
        <time>2020-08-03T15:14:43Z</time>
      </trkpt>
      <trkpt lat="49.63402" lon="4.98311">
        <ele>195.77</ele>
        <time>2020-08-03T15:14:49Z</time>
      </trkpt>
      <trkpt lat="49.63411" lon="4.98299">
        <ele>196.25</ele>
        <time>2020-08-03T15:15:05Z</time>
      </trkpt>
      <trkpt lat="49.63426" lon="4.98279">
        <ele>194.32</ele>
        <time>2020-08-03T15:15:20Z</time>
      </trkpt>
      <trkpt lat="49.63434" lon="4.98268">
        <ele>196.25</ele>
        <time>2020-08-03T15:15:33Z</time>
      </trkpt>
      <trkpt lat="49.63434" lon="4.98266">
        <ele>195.77</ele>
        <time>2020-08-03T15:15:49Z</time>
      </trkpt>
      <trkpt lat="49.63434" lon="4.98266">
        <ele>196.25</ele>
        <time>2020-08-03T15:15:56Z</time>
      </trkpt>
      <trkpt lat="49.63448" lon="4.98252">
        <ele>196.73</ele>
        <time>2020-08-03T15:16:11Z</time>
      </trkpt>
      <trkpt lat="49.63459" lon="4.98231">
        <ele>195.77</ele>
        <time>2020-08-03T15:16:29Z</time>
      </trkpt>
      <trkpt lat="49.63464" lon="4.98224">
        <ele>195.77</ele>
        <time>2020-08-03T15:16:37Z</time>
      </trkpt>
      <trkpt lat="49.63475" lon="4.982">
        <ele>194.32</ele>
        <time>2020-08-03T15:16:55Z</time>
      </trkpt>
      <trkpt lat="49.6348" lon="4.98183">
        <ele>192.88</ele>
        <time>2020-08-03T15:17:09Z</time>
      </trkpt>
      <trkpt lat="49.63484" lon="4.98159">
        <ele>189.04</ele>
        <time>2020-08-03T15:17:23Z</time>
      </trkpt>
      <trkpt lat="49.63485" lon="4.9815">
        <ele>186.63</ele>
        <time>2020-08-03T15:17:34Z</time>
      </trkpt>
      <trkpt lat="49.63492" lon="4.98135">
        <ele>183.75</ele>
        <time>2020-08-03T15:17:48Z</time>
      </trkpt>
      <trkpt lat="49.63492" lon="4.98129">
        <ele>184.23</ele>
        <time>2020-08-03T15:17:53Z</time>
      </trkpt>
      <trkpt lat="49.6349" lon="4.98118">
        <ele>185.19</ele>
        <time>2020-08-03T15:18:00Z</time>
      </trkpt>
      <trkpt lat="49.6348" lon="4.98106">
        <ele>187.59</ele>
        <time>2020-08-03T15:18:14Z</time>
      </trkpt>
      <trkpt lat="49.63473" lon="4.98095">
        <ele>190.48</ele>
        <time>2020-08-03T15:18:25Z</time>
      </trkpt>
      <trkpt lat="49.63468" lon="4.98082">
        <ele>190.96</ele>
        <time>2020-08-03T15:18:37Z</time>
      </trkpt>
      <trkpt lat="49.63463" lon="4.98071">
        <ele>190.48</ele>
        <time>2020-08-03T15:18:50Z</time>
      </trkpt>
      <trkpt lat="49.63462" lon="4.9806">
        <ele>193.36</ele>
        <time>2020-08-03T15:19:00Z</time>
      </trkpt>
      <trkpt lat="49.63461" lon="4.98051">
        <ele>193.36</ele>
        <time>2020-08-03T15:19:21Z</time>
      </trkpt>
      <trkpt lat="49.63456" lon="4.98049">
        <ele>191.44</ele>
        <time>2020-08-03T15:19:31Z</time>
      </trkpt>
    </trkseg>
  </trk>
</gpx>